Flight Track Log - Related Links

Times and Time Zones

All times are in EST time to prevent confusion due to time zone crossing. See the VP-BLX flight status page for this flight to view local times or setup timezone preferences in your user account.

Time Position Orientation Groundspeed Altitude Reporting Facility
EST Latitude Longitude Course Direction KTS MPH feet Rate Location/Type
Sat 12:23:13 PM 18.6000 -68.3000 347° North 190 219 2,500  Level San Juan Center
Sat 12:24:13 PM 18.6667 -68.3167 347° North 260 299 4,300 2,100 Climbing San Juan Center
Sat 12:25:13 PM 18.7500 -68.3500 339° North 280 322 6,700 2,450 Climbing San Juan Center
Sat 12:26:13 PM 18.8167 -68.3833 335° Northwest 280 322 9,200 2,400 Climbing San Juan Center
Sat 12:27:13 PM 18.9000 -68.4167 339° North 300 345 11,500 2,250 Climbing San Juan Center
Sat 12:28:13 PM 18.9833 -68.4500 339° North 320 368 13,700 2,100 Climbing San Juan Center
Sat 12:29:13 PM 19.0667 -68.4833 339° North 320 368 15,700 2,000 Climbing San Juan Center
Sat 12:30:13 PM 19.1500 -68.5167 339° North 350 403 17,700 1,900 Climbing San Juan Center
Sat 12:31:13 PM 19.2500 -68.5500 343° North 340 391 19,500 1,700 Climbing San Juan Center
Sat 12:32:13 PM 19.3333 -68.5833 339° North 350 403 21,100 1,350 Climbing San Juan Center
Sat 12:33:13 PM 19.4167 -68.5000 43° Northeast 380 437 22,200 800 Climbing San Juan Center
Sat 12:34:13 PM 19.5000 -68.4167 43° Northeast 420 483 22,700 850 Climbing San Juan Center
Sat 12:35:13 PM 19.5667 -68.3167 55° Northeast 420 483 23,900 1,140 Climbing San Juan Center
Sat 12:36:14 PM 19.6500 -68.2167 48° Northeast 440 506 25,000 1,091 Climbing San Juan Center
Sat 12:37:14 PM 19.7333 -68.1167 48° Northeast 460 529 26,100 1,600 Climbing San Juan Center
Sat 12:38:14 PM 19.8333 -68.0167 43° Northeast 450 518 28,200 1,450 Climbing San Juan Center
Sat 12:39:14 PM 19.9000 -67.9167 55° Northeast 440 506 29,000 400 Climbing San Juan Center
Sat 12:40:14 PM 20.0000 -67.8167 43° Northeast 450 518 29,000  Level San Juan Center
Sat 12:41:14 PM 20.0833 -67.7167 48° Northeast 460 529 29,000 300 Level San Juan Center
Sat 12:42:14 PM 20.1667 -67.6167 48° Northeast 460 529 29,600 744 Climbing San Juan Center
Sat 12:43:15 PM 20.2500 -67.5167 48° Northeast 460 529 30,500 893 Climbing San Juan Center
Sat 12:44:15 PM 20.3333 -67.4000 53° Northeast 470 541 31,400 1,000 Climbing San Juan Center
Sat 12:45:15 PM 20.4333 -67.3000 43° Northeast 480 552 32,500 850 Climbing San Juan Center
Sat 12:46:15 PM 20.5167 -67.1833 53° Northeast 480 552 33,100 250 Climbing San Juan Center
Sat 12:47:15 PM 20.6000 -67.0833 48° Northeast 490 564 33,000 -50 Descending San Juan Center
Sat 12:48:15 PM 20.7000 -66.9667 47° Northeast 490 564 33,000  Level San Juan Center
Sat 12:49:15 PM 20.7833 -66.8667 48° Northeast 480 552 33,000  Level San Juan Center
Sat 12:50:15 PM 20.8667 -66.7500 53° Northeast 480 552 33,000  Level San Juan Center
Sat 12:51:16 PM 20.9667 -66.6500 43° Northeast 490 564 33,000  Level San Juan Center
Sat 12:52:16 PM 21.0500 -66.5333 53° Northeast 480 552 33,000  Level San Juan Center
Sat 12:53:16 PM 21.1167 -66.4500 49° Northeast 470 541 33,000  Level San Juan Center
Sat 12:54:16 PM 21.2167 -66.3500 43° Northeast 470 541 33,000  Level San Juan Center
Sat 12:55:16 PM 21.3000 -66.2333 53° Northeast 480 552 33,000  Level San Juan Center
Sat 12:56:16 PM 21.3833 -66.1333 48° Northeast 470 541 33,000  Level San Juan Center
Sat 12:57:16 PM 21.4667 -66.0167 52° Northeast 470 541 33,000  Level San Juan Center
Sat 12:58:16 PM 21.5500 -65.9000 52° Northeast 470 541 33,000  Level San Juan Center
Sat 12:59:17 PM 21.6333 -65.8000 48° Northeast 470 541 33,000  Level San Juan Center
Sat 01:00:17 PM 21.7000 -65.6833 58° Northeast 470 541 33,000  Level San Juan Center
Sat 01:01:17 PM 21.7833 -65.5667 52° Northeast 460 529 33,000  Level San Juan Center
Sat 01:02:17 PM 21.8667 -65.4500 52° Northeast 480 552 33,000  Level San Juan Center
Sat 01:03:17 PM 21.9500 -65.3333 52° Northeast 480 552 33,000  Level San Juan Center
Sat 01:04:17 PM 22.0167 -65.2333 54° Northeast 490 564 33,000  Level San Juan Center
Sat 01:05:06 PM 22.1000 -65.1333 54° Northeast 479 551 33,000  Level New York Oceanic (ODAPS)
Sat 01:06:17 PM 22.1833 -65.0000 54° Northeast 450 518 33,000  Level San Juan Center
Sat 01:08:00 PM 22.3065 -64.8181 54° Northeast  Level FlightAware Approximate
Sat 01:14:04 PM 22.8000 -64.1000 54° Northeast 409 471 33,000  Level New York Oceanic (ODAPS)
Sat 01:14:42 PM 22.8333 -64.0333 53° Northeast 482 555 33,000  Level New York Oceanic (ODAPS)
Sat 01:15:00 PM 22.8068 -64.0731 54° Northeast  Level FlightAware Approximate
Sat 01:16:00 PM 22.8788 -63.9669 53° Northeast  Level FlightAware Approximate
Sat 01:17:00 PM 22.9512 -63.8609 53° Northeast  Level FlightAware Approximate
Sat 01:18:00 PM 23.0235 -63.7548 53° Northeast  Level FlightAware Approximate
Sat 01:19:00 PM 23.0957 -63.6486 54° Northeast  Level FlightAware Approximate
Sat 01:20:00 PM 23.2674 -63.4012 54° Northeast 409 471 33,000  Level FlightAware Transoceanic
Sat 01:21:00 PM 23.3524 -63.2694 54° Northeast 482 555 33,000  Level FlightAware Transoceanic
Sat 01:22:00 PM 23.4262 -63.1597 54° Northeast 482 555 33,000  Level FlightAware Transoceanic
Sat 01:23:00 PM 23.5000 -63.0500 38° Northeast 482 555 33,000  Level FlightAware Transoceanic
Sat 01:23:15 PM 23.5000 -63.0500 38° Northeast 466 536 33,000  Level New York Oceanic (ODAPS)
Sat 01:24:00 PM 23.6038 -62.9627 38° Northeast 482 555 33,000  Level FlightAware Transoceanic
Sat 01:25:00 PM 23.7076 -62.8753 38° Northeast 482 555 33,000  Level FlightAware Transoceanic
Sat 01:26:00 PM 23.8113 -62.7878 38° Northeast 482 555 33,000  Level FlightAware Transoceanic
Sat 01:27:00 PM 23.9149 -62.7001 38° Northeast 482 555 33,000  Level FlightAware Transoceanic
Sat 01:27:57 PM 24.0000 -62.6333 38° Northeast 467 537 33,000  Level New York Oceanic (ODAPS)
Sat 01:28:00 PM 24.0185 -62.6122 38° Northeast 482 555 33,000  Level FlightAware Transoceanic
Sat 01:29:00 PM 24.1221 -62.5243 38° Northeast 466 536 33,000  Level FlightAware Transoceanic
Sat 01:41:49 PM 25.4167 -61.4167 38° Northeast 463 533 33,000  Level New York Oceanic (ODAPS)
Sat 01:55:41 PM 26.8000 -60.1833 39° Northeast 454 522 33,000  Level New York Oceanic (ODAPS)
Sat 01:57:47 PM 27.0000 -60.0000 46° Northeast 465 535 33,000  Level New York Oceanic (ODAPS)
Sat 02:09:33 PM 28.0667 -58.7167 47° Northeast 461 531 33,000  Level New York Oceanic (ODAPS)
Sat 02:23:24 PM 29.3000 -57.2000 48° Northeast 462 532 33,000  Level New York Oceanic (ODAPS)
Sat 02:37:26 PM 30.5000 -55.6500 48° Northeast 457 526 33,000 99 Level New York Oceanic (ODAPS)
Sat 02:43:32 PM 31.0000 -55.0000 53° Northeast 463 533 35,000 146 Climbing New York Oceanic (ODAPS)
Sat 02:51:09 PM 31.6000 -54.0333 54° Northeast 462 532 35,000  Level New York Oceanic (ODAPS)
Sat 03:01:48 PM 32.4000 -52.7333 54° Northeast 451 519 35,000 65 Level New York Oceanic (ODAPS)
Sat 03:05:01 PM 32.6333 -52.3667 55° Northeast 447 514 35,900 98 Climbing New York Oceanic (ODAPS)
Sat 03:11:00 PM 33.0697 -51.6273 55° Northeast 447 514 35,900  Level FlightAware Transoceanic
Sat 03:12:00 PM 33.1420 -51.5033 55° Northeast 447 514 35,900  Level FlightAware Transoceanic
Sat 03:13:00 PM 33.2142 -51.3792 55° Northeast 447 514 35,900  Level FlightAware Transoceanic
Sat 03:14:00 PM 33.2863 -51.2549 55° Northeast 447 514 35,900  Level FlightAware Transoceanic
Sat 03:15:00 PM 33.3582 -51.1303 55° Northeast 447 514 35,900  Level FlightAware Transoceanic
Sat 03:16:00 PM 33.4300 -51.0056 55° Northeast 447 514 35,900  Level FlightAware Transoceanic
Sat 03:17:00 PM 33.5017 -50.8806 56° Northeast 447 514 35,900  Level FlightAware Transoceanic
Sat 03:18:00 PM 33.5733 -50.7554 56° Northeast 447 514 35,900 53 Level FlightAware Transoceanic
Sat 03:18:53 PM 33.6000 -50.7167 56° Northeast 433 498 36,000  Climbing New York Oceanic (ODAPS)
Sat 03:19:00 PM 33.6447 -50.6300 56° Northeast 447 514 35,900 -90 Descending FlightAware Transoceanic
Sat 03:20:00 PM 33.7160 -50.5044 56° Northeast 447 514 35,900  Level FlightAware Transoceanic
Sat 03:21:00 PM 33.7872 -50.3787 56° Northeast 447 514 35,900  Level FlightAware Transoceanic
Sat 03:22:00 PM 33.8583 -50.2526 56° Northeast 447 514 35,900  Level FlightAware Transoceanic
Sat 03:23:00 PM 33.9292 -50.1264 56° Northeast 447 514 35,900  Level FlightAware Transoceanic
Sat 03:24:00 PM 34.0000 -50.0000 61° Northeast 447 514 35,900 50 Level FlightAware Transoceanic
Sat 03:25:00 PM 34.0000 -50.0000 61° Northeast 433 498 36,000 57 Climbing FlightAware Transoceanic
Sat 03:25:45 PM 34.0000 -50.0000 61° Northeast 492 566 36,000  Level New York Oceanic (ODAPS)
Sat 03:26:00 PM 34.0656 -49.8582 61° Northeast 433 498 36,000  Level FlightAware Transoceanic
Sat 03:27:00 PM 34.1310 -49.7161 61° Northeast 433 498 36,000  Level FlightAware Transoceanic
Sat 03:28:00 PM 34.1962 -49.5738 61° Northeast 433 498 36,000  Level FlightAware Transoceanic
Sat 03:29:00 PM 34.2613 -49.4313 61° Northeast 433 498 36,000  Level FlightAware Transoceanic
Sat 03:30:00 PM 34.3262 -49.2886 61° Northeast 433 498 36,000  Level FlightAware Transoceanic
Sat 03:31:00 PM 34.3909 -49.1456 61° Northeast 433 498 36,000  Level FlightAware Transoceanic
Sat 03:32:00 PM 34.4624 -48.9873 61° Northeast 492 566 36,000  Level FlightAware Transoceanic
Sat 03:32:45 PM 34.4667 -48.9667 61° Northeast 484 557 36,000  Level New York Oceanic (ODAPS)
Sat 03:33:00 PM 34.5277 -48.8417 61° Northeast 492 566 36,000  Level FlightAware Transoceanic
Sat 03:34:00 PM 34.5929 -48.6959 62° Northeast 492 566 36,000  Level FlightAware Transoceanic
Sat 03:35:00 PM 34.6579 -48.5499 62° Northeast 492 566 36,000  Level FlightAware Transoceanic
Sat 03:36:00 PM 34.7228 -48.4036 62° Northeast 492 566 36,000  Level FlightAware Transoceanic
Sat 03:37:00 PM 34.7875 -48.2571 62° Northeast 492 566 36,000  Level FlightAware Transoceanic
Sat 03:38:00 PM 34.8520 -48.1104 62° Northeast 492 566 36,000  Level FlightAware Transoceanic
Sat 03:39:00 PM 34.8557 -48.0917 62° Northeast 484 557 36,000  Level FlightAware Transoceanic
Sat 03:40:00 PM 34.9199 -47.9451 62° Northeast 484 557 36,000  Level FlightAware Transoceanic
Sat 03:41:00 PM 34.9840 -47.7982 62° Northeast 484 557 36,000  Level FlightAware Transoceanic
Sat 03:42:00 PM 35.0478 -47.6511 62° Northeast 484 557 36,000  Level FlightAware Transoceanic
Sat 03:43:00 PM 35.1115 -47.5038 62° Northeast 484 557 36,000  Level FlightAware Transoceanic
Sat 03:44:00 PM 35.1750 -47.3563 62° Northeast 484 557 36,000  Level FlightAware Transoceanic
Sat 03:45:00 PM 35.2384 -47.2085 62° Northeast 484 557 36,000  Level FlightAware Transoceanic
Sat 03:46:00 PM 35.3016 -47.0605 62° Northeast 484 557 36,000  Level FlightAware Transoceanic
Sat 03:46:37 PM 35.2833 -47.1000 62° Northeast 481 554 36,000  Level New York Oceanic (ODAPS)
Sat 03:47:00 PM 35.3645 -46.9123 63° Northeast 484 557 36,000  Level FlightAware Transoceanic
Sat 03:48:00 PM 35.4273 -46.7638 63° Northeast 484 557 36,000  Level FlightAware Transoceanic
Sat 03:49:00 PM 35.4899 -46.6151 63° Northeast 484 557 36,000  Level FlightAware Transoceanic
Sat 03:50:00 PM 35.5524 -46.4661 63° Northeast 484 557 36,000  Level FlightAware Transoceanic
Sat 03:51:00 PM 35.6146 -46.3170 63° Northeast 484 557 36,000  Level FlightAware Transoceanic
Sat 03:52:00 PM 35.5919 -46.3685 63° Northeast 481 554 36,000  Level FlightAware Transoceanic
Sat 03:53:00 PM 35.6531 -46.2215 63° Northeast 481 554 36,000  Level FlightAware Transoceanic
Sat 03:54:00 PM 35.7141 -46.0743 63° Northeast 481 554 36,000  Level FlightAware Transoceanic
Sat 03:55:00 PM 35.7750 -45.9268 63° Northeast 481 554 36,000  Level FlightAware Transoceanic
Sat 03:56:00 PM 35.8356 -45.7792 63° Northeast 481 554 36,000  Level FlightAware Transoceanic
Sat 03:57:00 PM 35.8961 -45.6313 63° Northeast 481 554 36,000  Level FlightAware Transoceanic
Sat 03:58:00 PM 35.9564 -45.4832 63° Northeast 481 554 36,000  Level FlightAware Transoceanic
Sat 03:59:00 PM 36.0165 -45.3348 63° Northeast 481 554 36,000  Level FlightAware Transoceanic
Sat 04:00:00 PM 36.0764 -45.1863 64° Northeast 481 554 36,000  Level FlightAware Transoceanic
Sat 04:00:29 PM 36.1000 -45.1500 64° Northeast 495 570 36,000  Level New York Oceanic (ODAPS)
Sat 04:01:00 PM 36.1361 -45.0375 64° Northeast 481 554 36,000  Level FlightAware Transoceanic
Sat 04:02:00 PM 36.1957 -44.8885 64° Northeast 481 554 36,000  Level FlightAware Transoceanic
Sat 04:03:00 PM 36.2551 -44.7392 64° Northeast 481 554 36,000  Level FlightAware Transoceanic
Sat 04:04:00 PM 36.3142 -44.5898 64° Northeast 481 554 36,000  Level FlightAware Transoceanic
Sat 04:05:00 PM 36.3732 -44.4401 64° Northeast 481 554 36,000  Level FlightAware Transoceanic
Sat 04:06:00 PM 36.4618 -44.2328 64° Northeast 495 570 36,000  Level FlightAware Transoceanic
Sat 04:07:00 PM 36.5214 -44.0791 64° Northeast 495 570 36,000  Level FlightAware Transoceanic
Sat 04:08:00 PM 36.5808 -43.9252 64° Northeast 495 570 36,000  Level FlightAware Transoceanic
Sat 04:09:00 PM 36.6401 -43.7710 64° Northeast 495 570 36,000  Level FlightAware Transoceanic
Sat 04:10:00 PM 36.6991 -43.6166 65° Northeast 495 570 36,000  Level FlightAware Transoceanic
Sat 04:11:00 PM 36.7579 -43.4620 65° Northeast 495 570 36,000  Level FlightAware Transoceanic
Sat 04:12:00 PM 36.8165 -43.3071 65° Northeast 495 570 36,000  Level FlightAware Transoceanic
Sat 04:13:00 PM 36.8750 -43.1520 65° Northeast 495 570 36,000  Level FlightAware Transoceanic
Sat 04:14:00 PM 36.9332 -42.9967 65° Northeast 495 570 36,000  Level FlightAware Transoceanic
Sat 04:14:21 PM 36.9167 -43.0333 65° Northeast 510 587 36,000  Level New York Oceanic (ODAPS)
Sat 04:15:00 PM 36.9912 -42.8411 65° Northeast 495 570 36,000  Level FlightAware Transoceanic
Sat 04:16:00 PM 37.0490 -42.6853 65° Northeast 495 570 36,000  Level FlightAware Transoceanic
Sat 04:17:00 PM 37.1066 -42.5292 65° Northeast 495 570 36,000  Level FlightAware Transoceanic
Sat 04:18:00 PM 37.1640 -42.3729 65° Northeast 495 570 36,000  Level FlightAware Transoceanic
Sat 04:19:00 PM 37.2212 -42.2164 65° Northeast 495 570 36,000  Level FlightAware Transoceanic
Sat 04:20:00 PM 37.2671 -42.0849 65° Northeast 510 587 36,000  Level FlightAware Transoceanic
Sat 04:21:00 PM 37.3248 -41.9260 66° East 510 587 36,000  Level FlightAware Transoceanic
Sat 04:22:00 PM 37.3822 -41.7669 66° East 510 587 36,000  Level FlightAware Transoceanic
Sat 04:23:00 PM 37.4395 -41.6074 66° East 510 587 36,000  Level FlightAware Transoceanic
Sat 04:24:00 PM 37.4965 -41.4478 66° East 510 587 36,000  Level FlightAware Transoceanic
Sat 04:25:00 PM 37.5533 -41.2879 66° East 510 587 36,000  Level FlightAware Transoceanic
Sat 04:26:00 PM 37.6099 -41.1278 66° East 510 587 36,000  Level FlightAware Transoceanic
Sat 04:27:00 PM 37.6663 -40.9674 66° East 510 587 36,000  Level FlightAware Transoceanic
Sat 04:28:00 PM 37.7225 -40.8068 66° East 510 587 36,000  Level FlightAware Transoceanic
Sat 04:28:13 PM 37.7500 -40.7500 67° East 511 588 36,000  Level New York Oceanic (ODAPS)
Sat 04:29:00 PM 37.7784 -40.6459 66° East 510 587 36,000  Level FlightAware Transoceanic
Sat 04:30:00 PM 37.8341 -40.4848 66° East 510 587 36,000  Level FlightAware Transoceanic
Sat 04:31:00 PM 37.8896 -40.3234 67° East 510 587 36,000  Level FlightAware Transoceanic
Sat 04:32:00 PM 37.9449 -40.1618 67° East 510 587 36,000  Level FlightAware Transoceanic
Sat 04:33:00 PM 38.0000 -40.0000 59° Northeast 510 587 36,000  Level FlightAware Transoceanic
Sat 04:34:00 PM 38.0760 -39.8374 59° Northeast 511 588 36,000  Level FlightAware Transoceanic
Sat 04:35:00 PM 38.1517 -39.6745 59° Northeast 511 588 36,000  Level FlightAware Transoceanic
Sat 04:36:00 PM 38.2272 -39.5113 60° Northeast 511 588 36,000  Level FlightAware Transoceanic
Sat 04:37:00 PM 38.3025 -39.3478 60° Northeast 511 588 36,000  Level FlightAware Transoceanic
Sat 04:38:00 PM 38.3775 -39.1838 60° Northeast 511 588 36,000  Level FlightAware Transoceanic
Sat 04:39:00 PM 38.4523 -39.0196 60° Northeast 511 588 36,000  Level FlightAware Transoceanic
Sat 04:40:00 PM 38.5269 -38.8550 60° Northeast 511 588 36,000  Level FlightAware Transoceanic
Sat 04:41:00 PM 38.6013 -38.6901 60° Northeast 511 588 36,000  Level FlightAware Transoceanic
Sat 04:42:00 PM 38.6754 -38.5248 60° Northeast 511 588 36,000  Level FlightAware Transoceanic
Sat 04:43:00 PM 38.7493 -38.3592 60° Northeast 511 588 36,000  Level FlightAware Transoceanic
Sat 04:44:00 PM 38.8229 -38.1932 60° Northeast 511 588 36,000  Level FlightAware Transoceanic
Sat 04:45:00 PM 38.8964 -38.0269 60° Northeast 511 588 36,000  Level FlightAware Transoceanic
Sat 04:46:00 PM 38.9696 -37.8603 61° Northeast 511 588 36,000  Level FlightAware Transoceanic
Sat 04:47:00 PM 39.0425 -37.6933 61° Northeast 511 588 36,000  Level FlightAware Transoceanic
Sat 04:48:00 PM 39.1152 -37.5260 61° Northeast 511 588 36,000  Level FlightAware Transoceanic
Sat 04:49:00 PM 39.1877 -37.3583 61° Northeast 511 588 36,000  Level FlightAware Transoceanic
Sat 04:50:00 PM 39.2599 -37.1903 61° Northeast 511 588 36,000  Level FlightAware Transoceanic
Sat 04:51:00 PM 39.3319 -37.0219 61° Northeast 511 588 36,000  Level FlightAware Transoceanic
Sat 04:52:00 PM 39.4037 -36.8532 61° Northeast 511 588 36,000  Level FlightAware Transoceanic
Sat 04:53:00 PM 39.4752 -36.6841 61° Northeast 511 588 36,000  Level FlightAware Transoceanic
Sat 04:54:00 PM 39.5464 -36.5147 61° Northeast 511 588 36,000  Level FlightAware Transoceanic
Sat 04:55:00 PM 39.6174 -36.3450 62° Northeast 511 588 36,000  Level FlightAware Transoceanic
Sat 04:56:00 PM 39.6882 -36.1749 62° Northeast 511 588 36,000  Level FlightAware Transoceanic
Sat 04:57:00 PM 39.7587 -36.0044 62° Northeast 511 588 36,000  Level FlightAware Transoceanic
Sat 04:58:00 PM 39.8290 -35.8336 62° Northeast 511 588 36,000  Level FlightAware Transoceanic
Sat 04:59:00 PM 39.8990 -35.6624 62° Northeast 511 588 36,000  Level FlightAware Transoceanic
Sat 05:00:00 PM 39.9687 -35.4909 62° Northeast 511 588 36,000  Level FlightAware Transoceanic
Sat 05:01:00 PM 40.0382 -35.3191 62° Northeast 511 588 36,000  Level FlightAware Transoceanic
Sat 05:02:00 PM 40.1075 -35.1469 62° Northeast 511 588 36,000  Level FlightAware Transoceanic
Sat 05:03:00 PM 40.1765 -34.9743 62° Northeast 511 588 36,000  Level FlightAware Transoceanic
Sat 05:04:00 PM 40.2452 -34.8014 63° Northeast 511 588 36,000  Level FlightAware Transoceanic
Sat 05:05:00 PM 40.3137 -34.6282 63° Northeast 511 588 36,000  Level FlightAware Transoceanic
Sat 05:06:00 PM 40.3820 -34.4546 63° Northeast 511 588 36,000  Level FlightAware Transoceanic
Sat 05:07:00 PM 40.4499 -34.2806 63° Northeast 511 588 36,000  Level FlightAware Transoceanic
Sat 05:08:00 PM 40.5176 -34.1063 63° Northeast 511 588 36,000  Level FlightAware Transoceanic
Sat 05:09:00 PM 40.5851 -33.9316 63° Northeast 511 588 36,000  Level FlightAware Transoceanic
Sat 05:10:00 PM 40.6522 -33.7566 63° Northeast 511 588 36,000  Level FlightAware Transoceanic
Sat 05:11:00 PM 40.7192 -33.5813 63° Northeast 511 588 36,000  Level FlightAware Transoceanic
Sat 05:12:00 PM 40.7858 -33.4056 63° Northeast 511 588 36,000  Level FlightAware Transoceanic
Sat 05:13:00 PM 40.8522 -33.2295 64° Northeast 511 588 36,000  Level FlightAware Transoceanic
Sat 05:14:00 PM 40.9183 -33.0531 64° Northeast 511 588 36,000  Level FlightAware Transoceanic
Sat 05:15:00 PM 40.9841 -32.8763 64° Northeast 511 588 36,000  Level FlightAware Transoceanic
Sat 05:16:00 PM 41.0497 -32.6992 64° Northeast 511 588 36,000  Level FlightAware Transoceanic
Sat 05:17:00 PM 41.1150 -32.5217 64° Northeast 511 588 36,000  Level FlightAware Transoceanic
Sat 05:18:00 PM 41.1800 -32.3439 64° Northeast 511 588 36,000  Level FlightAware Transoceanic
Sat 05:19:00 PM 41.2448 -32.1657 64° Northeast 511 588 36,000  Level FlightAware Transoceanic
Sat 05:20:00 PM 41.3092 -31.9872 64° Northeast 511 588 36,000  Level FlightAware Transoceanic
Sat 05:21:00 PM 41.3735 -31.8083 65° Northeast 511 588 36,000  Level FlightAware Transoceanic
Sat 05:22:00 PM 41.4374 -31.6290 65° Northeast 511 588 36,000  Level FlightAware Transoceanic
Sat 05:23:00 PM 41.5010 -31.4494 65° Northeast 511 588 36,000  Level FlightAware Transoceanic
Sat 05:24:00 PM 41.5644 -31.2695 65° Northeast 511 588 36,000  Level FlightAware Transoceanic
Sat 05:25:00 PM 41.6275 -31.0892 65° Northeast 511 588 36,000  Level FlightAware Transoceanic
Sat 05:26:00 PM 41.6903 -30.9085 65° Northeast 511 588 36,000  Level FlightAware Transoceanic
Sat 05:27:00 PM 41.7528 -30.7275 65° Northeast 511 588 36,000  Level FlightAware Transoceanic
Sat 05:28:00 PM 41.8150 -30.5462 65° Northeast 511 588 36,000  Level FlightAware Transoceanic
Sat 05:29:00 PM 41.8770 -30.3645 65° Northeast 511 588 36,000  Level FlightAware Transoceanic
Sat 05:30:00 PM 41.9386 -30.1824 66° East 511 588 36,000 25 Level FlightAware Transoceanic
Sat 05:31:00 PM 41.9888 -30.0333 66° East  Level FlightAware Approximate
Sat 05:32:00 PM 42.0388 -29.8839 66° East  Level FlightAware Approximate
Sat 05:33:00 PM 42.0362 -29.9233 58° Northeast  Level FlightAware Approximate
Sat 05:34:00 PM 42.1013 -29.7848 58° Northeast  Level FlightAware Approximate
Sat 05:35:00 PM 42.1663 -29.6460 58° Northeast  Level FlightAware Approximate
Sat 05:36:00 PM 42.2311 -29.5069 58° Northeast  Level FlightAware Approximate
Sat 05:37:00 PM 42.2957 -29.3675 58° Northeast  Level FlightAware Approximate
Sat 05:38:00 PM 42.3602 -29.2278 58° Northeast  Level FlightAware Approximate
Sat 05:39:00 PM 42.4245 -29.0879 58° Northeast  Level FlightAware Approximate
Sat 05:40:00 PM 42.4887 -28.9477 58° Northeast  Level FlightAware Approximate
Sat 05:41:00 PM 42.5526 -28.8071 58° Northeast  Level FlightAware Approximate
Sat 05:42:00 PM 42.6164 -28.6663 58° Northeast  Level FlightAware Approximate
Sat 05:43:00 PM 42.6800 -28.5252 58° Northeast  Level FlightAware Approximate
Sat 05:44:00 PM 42.7435 -28.3838 59° Northeast  Level FlightAware Approximate
Sat 05:45:00 PM 42.8067 -28.2421 59° Northeast  Level FlightAware Approximate
Sat 05:46:00 PM 42.8698 -28.1001 59° Northeast  Level FlightAware Approximate
Sat 05:47:00 PM 42.9327 -27.9579 59° Northeast  Level FlightAware Approximate
Sat 05:48:00 PM 42.9955 -27.8153 59° Northeast  Level FlightAware Approximate
Sat 05:49:00 PM 43.0580 -27.6725 59° Northeast  Level FlightAware Approximate
Sat 05:50:00 PM 43.1204 -27.5293 59° Northeast  Level FlightAware Approximate
Sat 05:51:00 PM 43.1826 -27.3859 59° Northeast  Level FlightAware Approximate
Sat 05:52:00 PM 43.2446 -27.2422 59° Northeast  Level FlightAware Approximate
Sat 05:53:00 PM 43.3065 -27.0982 59° Northeast  Level FlightAware Approximate
Sat 05:54:00 PM 43.3681 -26.9539 60° Northeast  Level FlightAware Approximate
Sat 05:55:00 PM 43.4296 -26.8093 60° Northeast  Level FlightAware Approximate
Sat 05:56:00 PM 43.4909 -26.6644 60° Northeast  Level FlightAware Approximate
Sat 05:57:00 PM 43.5521 -26.5192 60° Northeast  Level FlightAware Approximate
Sat 05:58:00 PM 43.6130 -26.3737 60° Northeast  Level FlightAware Approximate
Sat 05:59:00 PM 43.6737 -26.2279 60° Northeast  Level FlightAware Approximate
Sat 06:00:00 PM 43.7343 -26.0819 60° Northeast  Level FlightAware Approximate
Sat 06:01:00 PM 43.7947 -25.9355 60° Northeast  Level FlightAware Approximate
Sat 06:02:00 PM 43.8549 -25.7888 60° Northeast  Level FlightAware Approximate
Sat 06:03:00 PM 43.9149 -25.6419 60° Northeast  Level FlightAware Approximate
Sat 06:04:00 PM 43.9747 -25.4946 61° Northeast  Level FlightAware Approximate
Sat 06:05:00 PM 44.0343 -25.3471 61° Northeast  Level FlightAware Approximate
Sat 06:06:00 PM 44.0937 -25.1992 61° Northeast  Level FlightAware Approximate
Sat 06:07:00 PM 44.1530 -25.0511 61° Northeast  Level FlightAware Approximate
Sat 06:08:00 PM 44.2120 -24.9026 61° Northeast  Level FlightAware Approximate
Sat 06:09:00 PM 44.2709 -24.7539 61° Northeast  Level FlightAware Approximate
Sat 06:10:00 PM 44.3295 -24.6049 61° Northeast  Level FlightAware Approximate
Sat 06:11:00 PM 44.3880 -24.4555 61° Northeast  Level FlightAware Approximate
Sat 06:12:00 PM 44.4463 -24.3059 61° Northeast  Level FlightAware Approximate
Sat 06:13:00 PM 44.5043 -24.1560 61° Northeast  Level FlightAware Approximate
Sat 06:14:00 PM 44.5622 -24.0057 62° Northeast  Level FlightAware Approximate
Sat 06:15:00 PM 44.6199 -23.8552 62° Northeast  Level FlightAware Approximate
Sat 06:16:00 PM 44.6774 -23.7044 62° Northeast  Level FlightAware Approximate
Sat 06:17:00 PM 44.7347 -23.5532 62° Northeast  Level FlightAware Approximate
Sat 06:18:00 PM 44.7918 -23.4018 62° Northeast  Level FlightAware Approximate
Sat 06:19:00 PM 44.8487 -23.2501 62° Northeast  Level FlightAware Approximate
Sat 06:20:00 PM 44.9054 -23.0981 62° Northeast  Level FlightAware Approximate
Sat 06:21:00 PM 44.9618 -22.9457 62° Northeast  Level FlightAware Approximate
Sat 06:22:00 PM 45.0181 -22.7931 62° Northeast  Level FlightAware Approximate
Sat 06:23:00 PM 45.0742 -22.6402 63° Northeast  Level FlightAware Approximate
Sat 06:24:00 PM 45.1301 -22.4870 63° Northeast  Level FlightAware Approximate
Sat 06:25:00 PM 45.1857 -22.3335 63° Northeast  Level FlightAware Approximate
Sat 06:26:00 PM 45.2412 -22.1796 63° Northeast  Level FlightAware Approximate
Sat 06:27:00 PM 45.2965 -22.0255 63° Northeast  Level FlightAware Approximate
Sat 06:28:00 PM 45.3515 -21.8711 63° Northeast  Level FlightAware Approximate
Sat 06:29:00 PM 45.4063 -21.7164 63° Northeast  Level FlightAware Approximate
Sat 06:30:00 PM 45.4610 -21.5613 63° Northeast  Level FlightAware Approximate
Sat 06:31:00 PM 45.5155 -21.4061 63° Northeast  Level FlightAware Approximate
Sat 06:32:00 PM 45.5703 -21.2509 63° Northeast  Level FlightAware Approximate
Sat 06:33:00 PM 45.6248 -21.0954 63° Northeast  Level FlightAware Approximate
Sat 06:34:00 PM 45.6791 -20.9395 63° Northeast  Level FlightAware Approximate
Sat 06:35:00 PM 45.7333 -20.7834 64° Northeast  Level FlightAware Approximate
Sat 06:36:00 PM 45.7872 -20.6269 64° Northeast  Level FlightAware Approximate
Sat 06:37:00 PM 45.8409 -20.4702 64° Northeast  Level FlightAware Approximate
Sat 06:38:00 PM 45.8943 -20.3131 64° Northeast  Level FlightAware Approximate
Sat 06:39:00 PM 45.9476 -20.1558 64° Northeast  Level FlightAware Approximate
Sat 06:40:00 PM 46.0007 -19.9982 59° Northeast  Level FlightAware Approximate
Sat 06:41:00 PM 46.0625 -19.8471 59° Northeast  Level FlightAware Approximate
Sat 06:42:00 PM 46.1240 -19.6956 60° Northeast  Level FlightAware Approximate
Sat 06:43:00 PM 46.1854 -19.5438 60° Northeast  Level FlightAware Approximate
Sat 06:44:00 PM 46.2465 -19.3917 60° Northeast  Level FlightAware Approximate
Sat 06:45:00 PM 46.3075 -19.2393 60° Northeast  Level FlightAware Approximate
Sat 06:46:00 PM 46.3682 -19.0865 60° Northeast  Level FlightAware Approximate
Sat 06:47:00 PM 46.4287 -18.9333 60° Northeast  Level FlightAware Approximate
Sat 06:48:00 PM 46.4891 -18.7798 60° Northeast  Level FlightAware Approximate
Sat 06:49:00 PM 46.5492 -18.6260 60° Northeast  Level FlightAware Approximate
Sat 06:50:00 PM 46.6091 -18.4719 60° Northeast  Level FlightAware Approximate
Sat 06:51:00 PM 46.6688 -18.3174 61° Northeast  Level FlightAware Approximate
Sat 06:52:00 PM 46.7283 -18.1625 61° Northeast  Level FlightAware Approximate
Sat 06:53:00 PM 46.7876 -18.0073 61° Northeast  Level FlightAware Approximate
Sat 06:54:00 PM 46.8467 -17.8518 61° Northeast  Level FlightAware Approximate
Sat 06:55:00 PM 46.9056 -17.6959 61° Northeast  Level FlightAware Approximate
Sat 06:56:00 PM 46.9642 -17.5397 61° Northeast  Level FlightAware Approximate
Sat 06:57:00 PM 47.0227 -17.3832 61° Northeast  Level FlightAware Approximate
Sat 06:58:00 PM 47.0809 -17.2263 61° Northeast  Level FlightAware Approximate
Sat 06:59:00 PM 47.1389 -17.0690 61° Northeast  Level FlightAware Approximate
Sat 07:00:00 PM 47.1967 -16.9114 62° Northeast  Level FlightAware Approximate
Sat 07:01:00 PM 47.2543 -16.7535 62° Northeast  Level FlightAware Approximate
Sat 07:02:00 PM 47.3117 -16.5952 62° Northeast  Level FlightAware Approximate
Sat 07:03:00 PM 47.3688 -16.4366 62° Northeast  Level FlightAware Approximate
Sat 07:04:00 PM 47.4258 -16.2777 62° Northeast  Level FlightAware Approximate
Sat 07:05:00 PM 47.4825 -16.1184 62° Northeast  Level FlightAware Approximate
Sat 07:06:00 PM 47.5390 -15.9587 62° Northeast  Level FlightAware Approximate
Sat 07:07:00 PM 47.5952 -15.7987 62° Northeast  Level FlightAware Approximate
Sat 07:08:00 PM 47.6513 -15.6384 63° Northeast  Level FlightAware Approximate
Sat 07:09:00 PM 47.7071 -15.4777 63° Northeast  Level FlightAware Approximate
Sat 07:10:00 PM 47.7627 -15.3167 63° Northeast  Level FlightAware Approximate
Sat 07:11:00 PM 47.8181 -15.1554 63° Northeast  Level FlightAware Approximate
Sat 07:12:00 PM 47.8732 -14.9937 63° Northeast  Level FlightAware Approximate
Sat 07:13:00 PM 47.9281 -14.8316 63° Northeast  Level FlightAware Approximate
Sat 07:14:00 PM 47.9828 -14.6692 63° Northeast  Level FlightAware Approximate
Sat 07:15:00 PM 48.0373 -14.5065 63° Northeast  Level FlightAware Approximate
Sat 07:16:00 PM 48.0915 -14.3434 63° Northeast  Level FlightAware Approximate
Sat 07:17:00 PM 48.1455 -14.1800 64° Northeast  Level FlightAware Approximate
Sat 07:18:00 PM 48.1993 -14.0162 64° Northeast  Level FlightAware Approximate
Sat 07:19:00 PM 48.2528 -13.8521 64° Northeast  Level FlightAware Approximate
Sat 07:20:00 PM 48.3061 -13.6876 64° Northeast  Level FlightAware Approximate
Sat 07:21:00 PM 48.3592 -13.5228 64° Northeast  Level FlightAware Approximate
Sat 07:22:00 PM 48.4120 -13.3577 64° Northeast  Level FlightAware Approximate
Sat 07:23:00 PM 48.4646 -13.1922 64° Northeast  Level FlightAware Approximate
Sat 07:24:00 PM 48.5169 -13.0264 64° Northeast  Level FlightAware Approximate
Sat 07:25:00 PM 48.5690 -12.8602 65° Northeast  Level FlightAware Approximate
Sat 07:26:00 PM 48.6209 -12.6937 65° Northeast  Level FlightAware Approximate
Sat 07:27:00 PM 48.6726 -12.5269 65° Northeast  Level FlightAware Approximate
Sat 07:27:50 PM 49.6444 -8.9793 65° Northeast 458 527 39,000  Level FlightAware UK
Sat 07:28:20 PM 49.6650 -8.8905 70° East 456 525 39,000  Level FlightAware UK
Sat 07:28:50 PM 49.6858 -8.8017 70° East 458 527 39,000  Level FlightAware UK
Sat 07:29:20 PM 49.7067 -8.7122 70° East 458 527 39,000  Level FlightAware UK
Sat 07:29:56 PM 49.7339 -8.6072 68° East 458 527 39,000  Level FlightAware UK
Sat 07:30:32 PM 49.7643 -8.5049 65° Northeast 460 529 39,000  Level FlightAware UK
Sat 07:31:02 PM 49.7900 -8.4187 65° Northeast 460 529 39,000  Level FlightAware UK
Sat 07:31:32 PM 49.8151 -8.3328 66° East 460 529 39,000  Level FlightAware UK
Sat 07:32:02 PM 49.8396 -8.2468 66° East 462 532 39,000  Level FlightAware UK
Sat 07:32:33 PM 49.8622 -8.1589 68° East 460 529 39,000  Level FlightAware UK
Sat 07:33:08 PM 49.8892 -8.0556 68° East 458 527 39,000  Level FlightAware UK
Sat 07:33:38 PM 49.9128 -7.9699 67° East 458 527 39,000  Level FlightAware UK
Sat 07:34:08 PM 49.9375 -7.8851 66° East 460 529 39,000  Level FlightAware UK
Sat 07:34:39 PM 49.9599 -7.7981 68° East 460 529 39,000  Level FlightAware UK
Sat 07:35:15 PM 49.9855 -7.6941 69° East 460 529 39,000  Level FlightAware UK
Sat 07:35:45 PM 50.0084 -7.6084 67° East 458 527 39,000  Level FlightAware UK
Sat 07:36:15 PM 50.0312 -7.5231 67° East 458 527 39,000  Level FlightAware UK
Sat 07:36:45 PM 50.0538 -7.4378 68° East 458 527 39,000  Level FlightAware UK
Sat 07:36:48 PM 50.0555 -7.4285 68° East 428 493 39,000  Level FlightAware ADS-B (CYOW)
Sat 07:37:28 PM 50.0824 -7.3251 68° East 427 491 39,000  Level FlightAware ADS-B (CYOW)
Sat 07:37:58 PM 50.1059 -7.2341 68° East 428 493 39,000  Level FlightAware ADS-B (CYOW)
Sat 07:38:28 PM 50.1293 -7.1436 68° East 428 493 39,000  Level FlightAware ADS-B (CYOW)
Sat 07:38:58 PM 50.1512 -7.0584 68° East 428 493 39,000  Level FlightAware ADS-B (CYOW)
Sat 07:39:28 PM 50.1730 -6.9736 68° East 428 493 39,000  Level FlightAware ADS-B (CYOW)
Sat 07:39:58 PM 50.1944 -6.8896 68° East 427 491 39,000  Level FlightAware ADS-B (CYOW)
Sat 07:40:29 PM 50.2175 -6.7990 68° East 426 490 39,000  Level FlightAware ADS-B (EGPK / PIK)
Sat 07:41:03 PM 50.2414 -6.7046 68° East 426 490 39,000  Level FlightAware ADS-B (EGPK / PIK)
Sat 07:41:35 PM 50.2641 -6.6143 68° East 425 489 39,000  Level FlightAware ADS-B (EGPK / PIK)
Sat 07:42:08 PM 50.2888 -6.5161 69° East 424 488 39,000  Level FlightAware ADS-B (CYOW)
Sat 07:42:38 PM 50.3099 -6.4317 69° East 424 488 39,000  Level FlightAware ADS-B (CYOW)
Sat 07:43:08 PM 50.3313 -6.3457 69° East 423 487 39,000  Level FlightAware ADS-B (CYOW)
Sat 07:43:38 PM 50.3522 -6.2616 69° East 421 484 39,000  Level FlightAware ADS-B (CYOW)
Sat 07:44:25 PM 50.3852 -6.1281 69° East 420 483 39,000  Level FlightAware ADS-B (CYOW)
Sat 07:44:27 PM 50.3872 -6.1225 69° East 456 525 39,000  Level FlightAware UK
Sat 07:44:56 PM 50.4013 -6.0624 69° East 420 483 39,000  Level FlightAware ADS-B (EGDX / DGX)
Sat 07:45:26 PM 50.4268 -5.9584 69° East 420 483 39,000  Level FlightAware ADS-B
Sat 07:45:27 PM 50.4284 -5.9527 69° East 458 527 39,000  Level FlightAware UK
Sat 07:45:57 PM 50.4492 -5.8671 69° East 454 522 39,000  Level FlightAware UK
Sat 07:45:58 PM 50.4496 -5.8647 69° East 419 482 39,000  Level FlightAware ADS-B
Sat 07:46:28 PM 50.4704 -5.7793 69° East 420 483 39,000  Level FlightAware ADS-B (CYOW)
Sat 07:46:58 PM 50.4908 -5.6949 69° East 420 483 39,000  Level FlightAware ADS-B (CYOW)
Sat 07:47:28 PM 50.5113 -5.6092 69° East 420 483 39,000  Level FlightAware ADS-B (CYOW)
Sat 07:47:59 PM 50.5321 -5.5227 69° East 418 481 39,000  Level FlightAware ADS-B (EGDX / DGX)
Sat 07:48:23 PM 50.5476 -5.4580 69° East 417 480 39,000  Level FlightAware ADS-B (EGPK / PIK)
Sat 07:48:53 PM 50.5692 -5.3676 69° East 416 479 39,000  Level FlightAware ADS-B (EGPK / PIK)
Sat 07:49:12 PM 50.5821 -5.3133 69° East 416 479 39,000  Level FlightAware ADS-B
Sat 07:49:24 PM 50.5894 -5.2826 70° East 416 479 39,000  Level FlightAware ADS-B (EGDX / DGX)
Sat 07:49:43 PM 50.6026 -5.2270 69° East 416 479 39,000  Level FlightAware ADS-B
Sat 07:49:54 PM 50.6084 -5.2023 70° East 417 480 39,000  Level FlightAware ADS-B (EGPK / PIK)
Sat 07:50:13 PM 50.6227 -5.1417 70° East 417 480 39,000  Level FlightAware ADS-B
Sat 07:50:25 PM 50.6303 -5.1091 70° East 417 480 39,000  Level FlightAware ADS-B (EGDX / DGX)
Sat 07:50:43 PM 50.6427 -5.0565 70° East 416 479 39,000  Level FlightAware ADS-B
Sat 07:50:58 PM 50.6526 -5.0142 70° East 415 478 39,000  Level FlightAware ADS-B (EGCW)
Sat 07:51:14 PM 50.6632 -4.9689 70° East 415 478 39,000  Level FlightAware ADS-B
Sat 07:51:30 PM 50.6738 -4.9231 70° East 415 478 39,000  Level FlightAware ADS-B
Sat 07:51:44 PM 50.6829 -4.8839 70° East 414 476 39,000  Level FlightAware ADS-B
Sat 07:51:58 PM 50.6921 -4.8447 70° East 411 473 39,000  Level FlightAware ADS-B
Sat 07:52:04 PM 50.6962 -4.8267 70° East 413 475 39,000  Level FlightAware ADS-B
Sat 07:52:15 PM 50.7025 -4.8001 70° East 413 475 39,000  Level FlightAware ADS-B
Sat 07:52:30 PM 50.7123 -4.7577 70° East 413 475 39,000  Level FlightAware ADS-B (EGCW)
Sat 07:52:45 PM 50.7229 -4.7120 70° East 413 475 39,000  Level FlightAware ADS-B
Sat 07:52:50 PM 50.7259 -4.6987 70° East 413 475 39,000  Level FlightAware ADS-B
Sat 07:53:00 PM 50.7324 -4.6705 70° East 413 475 39,000  Level FlightAware ADS-B
Sat 07:53:15 PM 50.7424 -4.6271 70° East 413 475 39,000  Level FlightAware ADS-B
Sat 07:53:30 PM 50.7519 -4.5860 70° East 413 475 39,000  Level FlightAware ADS-B (CYOW)
Sat 07:53:40 PM 50.7573 -4.5619 70° East 413 475 39,000  Level FlightAware ADS-B
Sat 07:53:47 PM 50.7632 -4.5365 70° East 414 476 39,000  Level FlightAware ADS-B
Sat 07:53:50 PM 50.7637 -4.5340 72° East 414 476 39,000  Level FlightAware ADS-B
Sat 07:54:18 PM 50.7832 -4.4486 70° East 415 478 39,000  Level FlightAware ADS-B
Sat 07:54:21 PM 50.7844 -4.4432 70° East 415 478 39,000  Level FlightAware ADS-B
Sat 07:54:25 PM 50.7878 -4.4285 70° East 413 475 39,000  Level FlightAware ADS-B
Sat 07:54:35 PM 50.7942 -4.4001 70° East 415 478 39,000  Level FlightAware ADS-B (CYOW)
Sat 07:54:42 PM 50.7985 -4.3812 70° East 413 475 39,000  Level FlightAware ADS-B
Sat 07:54:49 PM 50.8029 -4.3618 70° East 415 478 39,000  Level FlightAware ADS-B
Sat 07:54:52 PM 50.8047 -4.3539 70° East 414 476 39,000  Level FlightAware ADS-B (EGDX / DGX)
Sat 07:54:57 PM 50.8084 -4.3375 70° East 411 473 39,000  Level FlightAware ADS-B
Sat 07:55:06 PM 50.8135 -4.3145 70° East 414 476 39,000  Level FlightAware ADS-B (EGDX / DGX)
Sat 07:55:10 PM 50.8166 -4.3011 70° East 411 473 39,000  Level FlightAware ADS-B
Sat 07:55:20 PM 50.8231 -4.2721 70° East 413 475 39,000  Level FlightAware ADS-B
Sat 07:55:26 PM 50.8267 -4.2557 71° East 410 472 39,000  Level FlightAware ADS-B
Sat 07:55:31 PM 50.8297 -4.2425 70° East 410 472 39,000  Level FlightAware ADS-B
Sat 07:55:43 PM 50.8378 -4.2069 70° East 410 472 39,000  Level FlightAware ADS-B
Sat 07:55:51 PM 50.8428 -4.1846 70° East 411 473 39,000  Level FlightAware ADS-B
Sat 07:55:53 PM 50.8441 -4.1792 69° East 408 470 39,000  Level FlightAware ADS-B
Sat 07:56:04 PM 50.8509 -4.1490 70° East 411 473 39,000  Level FlightAware ADS-B
Sat 07:56:14 PM 50.8562 -4.1256 70° East 411 473 39,000  Level FlightAware ADS-B
Sat 07:56:21 PM 50.8621 -4.0992 70° East 411 473 39,000  Level FlightAware ADS-B
Sat 07:56:24 PM 50.8640 -4.0907 71° East 411 473 39,000  Level FlightAware ADS-B
Sat 07:56:34 PM 50.8701 -4.0637 70° East 410 472 39,000  Level FlightAware ADS-B (EGPK / PIK)
Sat 07:56:42 PM 50.8753 -4.0402 71° East 407 468 39,000  Level FlightAware ADS-B
Sat 07:56:52 PM 50.8815 -4.0126 70° East 410 472 39,000  Level FlightAware ADS-B
Sat 07:56:59 PM 50.8855 -3.9946 71° East 409 471 39,000  Level FlightAware ADS-B
Sat 07:57:09 PM 50.8918 -3.9663 70° East 409 471 39,000  Level FlightAware ADS-B (EGPK / PIK)
Sat 07:57:12 PM 50.8931 -3.9607 71° East 407 468 39,000  Level FlightAware ADS-B
Sat 07:57:22 PM 50.9004 -3.9280 70° East 408 470 39,000  Level FlightAware ADS-B
Sat 07:57:29 PM 50.9043 -3.9105 71° East 408 470 39,000  Level FlightAware ADS-B (EGPK / PIK)
Sat 07:57:39 PM 50.9105 -3.8824 71° East 408 470 39,000  Level FlightAware ADS-B (EGPK / PIK)
Sat 07:57:48 PM 50.9165 -3.8554 71° East 405 466 39,000  Level FlightAware ADS-B
Sat 07:57:53 PM 50.9194 -3.8421 71° East 408 470 39,000  Level FlightAware ADS-B
Sat 07:57:58 PM 50.9229 -3.8265 70° East 408 470 39,000  Level FlightAware ADS-B (EGPK / PIK)
Sat 07:58:23 PM 50.9384 -3.7563 71° East 408 470 39,000  Level FlightAware ADS-B
Sat 07:58:28 PM 50.9410 -3.7443 71° East 408 470 39,000  Level FlightAware ADS-B
Sat 07:58:54 PM 50.9571 -3.6711 71° East 408 470 39,000  Level FlightAware ADS-B
Sat 07:58:59 PM 50.9604 -3.6561 71° East 408 470 39,000  Level FlightAware ADS-B (EGPK / PIK)
Sat 07:59:24 PM 50.9761 -3.5844 71° East 409 471 39,000  Level FlightAware ADS-B
Sat 07:59:30 PM 50.9795 -3.5687 71° East 409 471 39,000  Level FlightAware ADS-B (EGPK / PIK)
Sat 07:59:55 PM 50.9949 -3.4981 71° East 410 472 39,000  Level FlightAware ADS-B
Sat 08:00:02 PM 50.9991 -3.4788 71° East 409 471 39,000  Level FlightAware ADS-B (EGDM)
Sat 08:00:25 PM 51.0137 -3.4117 71° East 410 472 39,000  Level FlightAware ADS-B
Sat 08:00:35 PM 51.0197 -3.3838 71° East 410 472 39,000  Level FlightAware ADS-B
Sat 08:00:55 PM 51.0322 -3.3262 71° East 411 473 39,000  Level FlightAware ADS-B
Sat 08:01:05 PM 51.0371 -3.3037 71° East 411 473 39,000  Level FlightAware ADS-B
Sat 08:01:26 PM 51.0508 -3.2399 71° East 411 473 39,000  Level FlightAware ADS-B
Sat 08:01:35 PM 51.0559 -3.2162 71° East 411 473 39,000  Level FlightAware ADS-B
Sat 08:01:56 PM 51.0694 -3.1537 71° East 411 473 39,000  Level FlightAware ADS-B
Sat 08:02:05 PM 51.0747 -3.1287 71° East 411 473 39,000  Level FlightAware ADS-B (EGCW)
Sat 08:02:26 PM 51.0877 -3.0677 71° East 413 475 39,000  Level FlightAware ADS-B
Sat 08:02:35 PM 51.0930 -3.0426 71° East 414 476 39,000  Level FlightAware ADS-B (EGCW)
Sat 08:02:56 PM 51.1060 -2.9813 71° East 415 478 39,000  Level FlightAware ADS-B
Sat 08:03:05 PM 51.1114 -2.9560 71° East 416 479 39,000  Level FlightAware ADS-B
Sat 08:03:27 PM 51.1251 -2.8912 71° East 416 479 39,000  Level FlightAware ADS-B
Sat 08:03:34 PM 51.1294 -2.8709 72° East 417 480 39,000  Level FlightAware ADS-B
Sat 08:03:58 PM 51.1438 -2.8021 71° East 417 480 39,000  Level FlightAware ADS-B
Sat 08:04:05 PM 51.1464 -2.7898 72° East 417 480 39,000  Level FlightAware ADS-B
Sat 08:04:29 PM 51.1625 -2.7127 72° East 418 481 39,000  Level FlightAware ADS-B
Sat 08:04:35 PM 51.1665 -2.6936 71° East 419 482 39,000  Level FlightAware ADS-B (EGCW)
Sat 08:05:00 PM 51.1814 -2.6227 71° East 418 481 39,000  Level FlightAware ADS-B
Sat 08:05:05 PM 51.1842 -2.6090 72° East 418 481 39,000  Level FlightAware ADS-B
Sat 08:05:30 PM 51.1996 -2.5355 72° East 418 481 39,000  Level FlightAware ADS-B
Sat 08:05:35 PM 51.2022 -2.5232 72° East 418 481 39,000  Level FlightAware ADS-B (EGPK / PIK)
Sat 08:06:00 PM 51.2174 -2.4503 72° East 418 481 39,000  Level FlightAware ADS-B
Sat 08:06:05 PM 51.2208 -2.4336 72° East 418 481 39,000  Level FlightAware ADS-B (EGCW)
Sat 08:06:30 PM 51.2361 -2.3589 72° East 418 481 39,000  Level FlightAware ADS-B
Sat 08:06:35 PM 51.2389 -2.3451 72° East 418 481 39,000  Level FlightAware ADS-B
Sat 08:07:00 PM 51.2543 -2.2704 72° East 418 481 39,000  Level FlightAware ADS-B
Sat 08:07:05 PM 51.2557 -2.2636 72° East 417 480 39,000  Level FlightAware ADS-B
Sat 08:07:31 PM 51.2726 -2.1808 72° East 416 479 39,000  Level FlightAware ADS-B
Sat 08:07:35 PM 51.2746 -2.1709 72° East 417 480 39,000  Level FlightAware ADS-B
Sat 08:08:02 PM 51.2906 -2.0920 72° East 415 478 39,000  Level FlightAware ADS-B
Sat 08:08:05 PM 51.2920 -2.0852 72° East 415 478 39,000  Level FlightAware ADS-B
Sat 08:08:32 PM 51.3086 -2.0033 72° East 415 478 39,000  Level FlightAware ADS-B
Sat 08:08:35 PM 51.3096 -1.9984 73° East 414 476 39,000  Level FlightAware ADS-B
Sat 08:09:02 PM 51.3262 -1.9154 72° East 414 476 39,000  Level FlightAware ADS-B
Sat 08:09:05 PM 51.3270 -1.9117 71° East 414 476 39,000  Level FlightAware ADS-B
Sat 08:09:33 PM 51.3439 -1.8275 72° East 414 476 39,000  Level FlightAware ADS-B
Sat 08:09:44 PM 51.3498 -1.7982 72° East 411 473 39,000  Level FlightAware ADS-B
Sat 08:09:54 PM 51.3562 -1.7663 72° East 411 473 39,000  Level FlightAware ADS-B
Sat 08:10:03 PM 51.3618 -1.7384 72° East 414 476 39,000  Level FlightAware ADS-B
Sat 08:10:06 PM 51.3627 -1.7335 73° East 414 476 39,000  Level FlightAware ADS-B (CYOW)
Sat 08:10:09 PM 51.3646 -1.7242 72° East 415 478 39,000  Level FlightAware ADS-B (CYOW)
Sat 08:10:24 PM 51.3739 -1.6776 72° East 413 475 39,000  Level FlightAware ADS-B
Sat 08:10:34 PM 51.3794 -1.6501 72° East 417 480 39,000  Level FlightAware ADS-B
Sat 08:10:47 PM 51.3869 -1.6120 72° East 414 476 39,000  Level FlightAware ADS-B
Sat 08:10:54 PM 51.3908 -1.5920 73° East 414 476 39,000  Level FlightAware ADS-B (EPKK / KRK)
Sat 08:11:04 PM 51.3963 -1.5643 72° East 416 479 39,000  Level FlightAware ADS-B
Sat 08:11:17 PM 51.4044 -1.5232 72° East 414 476 39,000  Level FlightAware ADS-B (EPKK / KRK)
Sat 08:11:24 PM 51.4081 -1.5044 72° East 414 476 39,000  Level FlightAware ADS-B (EPKK / KRK)
Sat 08:11:35 PM 51.4148 -1.4702 73° East 414 476 39,000  Level FlightAware ADS-B
Sat 08:11:37 PM 51.4156 -1.4664 72° East 416 479 39,000  Level FlightAware ADS-B
Sat 08:11:44 PM 51.4201 -1.4434 73° East 413 475 39,000  Level FlightAware ADS-B
Sat 08:11:47 PM 51.4217 -1.4351 72° East 414 476 39,000  Level FlightAware ADS-B (EPKK / KRK)
Sat 08:11:57 PM 51.4271 -1.4078 73° East 414 476 39,000  Level FlightAware ADS-B (EPKK / KRK)
Sat 08:12:07 PM 51.4329 -1.3784 72° East 416 479 39,000  Level FlightAware ADS-B
Sat 08:12:09 PM 51.4343 -1.3708 73° East 414 476 39,000  Level FlightAware ADS-B
Sat 08:12:15 PM 51.4379 -1.3528 72° East 414 476 39,000  Level FlightAware ADS-B
Sat 08:12:24 PM 51.4423 -1.3301 73° East 414 476 39,000  Level FlightAware ADS-B
Sat 08:12:29 PM 51.4451 -1.3158 73° East 415 478 39,000  Level FlightAware ADS-B
Sat 08:12:37 PM 51.4504 -1.2888 73° East 417 480 39,000  Level FlightAware ADS-B
Sat 08:12:40 PM 51.4514 -1.2837 73° East 414 476 39,000  Level FlightAware ADS-B
Sat 08:12:50 PM 51.4578 -1.2507 73° East 415 478 39,000  Level FlightAware ADS-B
Sat 08:13:05 PM 51.4666 -1.2054 73° East 418 481 39,000  Level FlightAware ADS-B (EGLF / FAB)
Sat 08:13:08 PM 51.4679 -1.1984 73° East 418 481 39,000  Level FlightAware ADS-B
Sat 08:13:14 PM 51.4715 -1.1802 73° East 416 479 39,000  Level FlightAware ADS-B
Sat 08:13:23 PM 51.4766 -1.1538 73° East 417 480 39,000  Level FlightAware ADS-B
Sat 08:13:35 PM 51.4838 -1.1165 73° East 419 482 39,000  Level FlightAware ADS-B (EGLF / FAB)
Sat 08:13:38 PM 51.4855 -1.1077 72° East 418 481 39,000  Level FlightAware ADS-B
Sat 08:13:44 PM 51.4888 -1.0905 73° East 416 479 39,000  Level FlightAware ADS-B
Sat 08:13:55 PM 51.4947 -1.0597 73° East 416 479 39,000  Level FlightAware ADS-B
Sat 08:14:09 PM 51.5026 -1.0186 73° East 418 481 39,000  Level FlightAware ADS-B
Sat 08:14:13 PM 51.5052 -1.0053 73° East 416 479 39,000  Level FlightAware ADS-B
Sat 08:14:34 PM 51.5171 -0.9428 73° East 416 479 39,000  Level FlightAware ADS-B
Sat 08:14:39 PM 51.5198 -0.9283 73° East 418 481 39,000  Level FlightAware ADS-B
Sat 08:14:52 PM 51.5271 -0.8905 73° East 415 478 39,000  Level FlightAware ADS-B
Sat 08:15:09 PM 51.5370 -0.8388 73° East 417 480 39,000  Level FlightAware ADS-B
Sat 08:15:23 PM 51.5443 -0.8003 73° East 417 480 39,000  Level FlightAware ADS-B
Sat 08:15:32 PM 51.5498 -0.7713 73° East 415 478 39,000  Level FlightAware ADS-B
Sat 08:15:40 PM 51.5541 -0.7487 73° East 417 480 39,000  Level FlightAware ADS-B
Sat 08:15:50 PM 51.5596 -0.7197 73° East 415 478 39,000  Level FlightAware ADS-B
Sat 08:16:01 PM 51.5660 -0.6856 73° East 415 478 39,000  Level FlightAware ADS-B
Sat 08:16:10 PM 51.5709 -0.6598 73° East 417 480 39,000  Level FlightAware ADS-B
Sat 08:16:33 PM 51.5838 -0.5909 73° East 418 481 39,000  Level FlightAware ADS-B
Sat 08:16:41 PM 51.5881 -0.5682 73° East 418 481 39,000  Level FlightAware ADS-B
Sat 08:16:44 PM 51.5900 -0.5580 73° East 415 478 39,000  Level FlightAware ADS-B
Sat 08:16:53 PM 51.5935 -0.5390 73° East 418 481 39,000  Level FlightAware ADS-B
Sat 08:16:59 PM 51.5976 -0.5175 73° East 418 481 39,000  Level FlightAware ADS-B (EGLC / LCY)
Sat 08:17:03 PM 51.6002 -0.5035 73° East 416 479 39,000  Level FlightAware ADS-B
Sat 08:17:11 PM 51.6048 -0.4788 73° East 419 482 39,000  Level FlightAware ADS-B
Sat 08:17:15 PM 51.6070 -0.4668 73° East 416 479 39,000  Level FlightAware ADS-B
Sat 08:17:19 PM 51.6091 -0.4554 73° East 416 479 39,000  Level FlightAware ADS-B
Sat 08:17:42 PM 51.6218 -0.3876 73° East 419 482 39,000  Level FlightAware ADS-B
Sat 08:17:49 PM 51.6252 -0.3692 73° East 416 479 39,000  Level FlightAware ADS-B
Sat 08:18:05 PM 51.6349 -0.3170 73° East 417 480 39,000  Level FlightAware ADS-B
Sat 08:18:12 PM 51.6384 -0.2979 74° East 420 483 39,000  Level FlightAware ADS-B
Sat 08:18:33 PM 51.6505 -0.2337 73° East 418 481 39,000  Level FlightAware ADS-B
Sat 08:18:39 PM 51.6528 -0.2231 71° East 416 479 39,000  Level FlightAware ADS-B (EGPK / PIK)
Sat 08:18:44 PM 51.6577 -0.2036 68° East 415 478 39,000  Level FlightAware ADS-B
Sat 08:18:45 PM 51.6593 -0.1982 65° Northeast 415 478 39,000  Level FlightAware ADS-B (EGLF / FAB)
Sat 08:18:51 PM 51.6637 -0.1836 64° Northeast 412 474 39,000  Level FlightAware ADS-B
Sat 08:18:53 PM 51.6654 -0.1784 62° Northeast 412 474 39,000  Level FlightAware ADS-B
Sat 08:19:09 PM 51.6799 -0.1387 60° Northeast 411 473 39,000  Level FlightAware ADS-B (EGPK / PIK)
Sat 08:19:38 PM 51.7085 -0.0594 60° Northeast 410 472 39,000  Level FlightAware ADS-B (EGPK / PIK)
Sat 08:19:50 PM 51.7191 -0.0295 60° Northeast 411 473 39,000  Level FlightAware ADS-B
Sat 08:19:53 PM 51.7213 -0.0232 61° Northeast 407 468 39,000  Level FlightAware ADS-B
Sat 08:20:20 PM 51.7465 0.0518 61° Northeast 411 473 39,000  Level FlightAware ADS-B
Sat 08:20:23 PM 51.7497 0.0615 62° Northeast 410 472 39,000  Level FlightAware ADS-B (EGDM)
Sat 08:20:50 PM 51.7737 0.1332 62° Northeast 412 474 39,000  Level FlightAware ADS-B
Sat 08:20:53 PM 51.7768 0.1424 61° Northeast 411 473 39,000  Level FlightAware ADS-B (EGLF / FAB)
Sat 08:21:20 PM 51.8008 0.2136 61° Northeast 411 473 39,000  Level FlightAware ADS-B
Sat 08:21:23 PM 51.8029 0.2198 61° Northeast 411 473 39,000  Level FlightAware ADS-B
Sat 08:21:50 PM 51.8283 0.2952 61° Northeast 413 475 39,000  Level FlightAware ADS-B
Sat 08:21:53 PM 51.8298 0.2994 60° Northeast 413 475 39,000  Level FlightAware ADS-B
Sat 08:22:21 PM 51.8559 0.3770 61° Northeast 414 476 39,000  Level FlightAware ADS-B
Sat 08:22:23 PM 51.8578 0.3829 62° Northeast 414 476 39,000  Level FlightAware ADS-B
Sat 08:22:51 PM 51.8832 0.4588 62° Northeast 415 478 39,000  Level FlightAware ADS-B
Sat 08:22:53 PM 51.8846 0.4629 61° Northeast 415 478 39,000  Level FlightAware ADS-B
Sat 08:23:21 PM 51.9108 0.5415 62° Northeast 416 479 39,000  Level FlightAware ADS-B
Sat 08:23:23 PM 51.9126 0.5467 62° Northeast 417 480 39,000  Level FlightAware ADS-B
Sat 08:23:51 PM 51.9384 0.6244 62° Northeast 417 480 39,000  Level FlightAware ADS-B
Sat 08:23:53 PM 51.9399 0.6290 62° Northeast 417 480 39,000  Level FlightAware ADS-B
Sat 08:24:22 PM 51.9662 0.7080 62° Northeast 417 480 39,000  Level FlightAware ADS-B
Sat 08:24:23 PM 51.9675 0.7122 63° Northeast 417 480 39,000  Level FlightAware ADS-B
Sat 08:24:52 PM 51.9936 0.7913 62° Northeast 416 479 39,000  Level FlightAware ADS-B
Sat 08:24:53 PM 51.9946 0.7942 61° Northeast 416 479 39,000  Level FlightAware ADS-B
Sat 08:25:22 PM 52.0209 0.8740 62° Northeast 417 480 39,000  Level FlightAware ADS-B
Sat 08:25:23 PM 52.0217 0.8763 62° Northeast 417 480 39,000  Level FlightAware ADS-B
Sat 08:25:52 PM 52.0484 0.9576 62° Northeast 419 482 39,000  Level FlightAware ADS-B
Sat 08:25:53 PM 52.0479 0.9561 240° Southwest 419 482 39,000  Level FlightAware ADS-B
Sat 08:26:22 PM 52.0757 1.0412 62° Northeast 420 483 39,000  Level FlightAware ADS-B
Sat 08:26:23 PM 52.0753 1.0400 240° Southwest 420 483 39,000  Level FlightAware ADS-B
Sat 08:26:53 PM 52.1029 1.1248 62° Northeast 421 484 39,000  Level FlightAware ADS-B
Sat 08:27:23 PM 52.1308 1.2106 62° Northeast 422 486 39,000  Level FlightAware ADS-B
Sat 08:27:24 PM 52.1316 1.2131 63° Northeast 422 486 39,000  Level FlightAware ADS-B
Sat 08:27:53 PM 52.1578 1.2940 62° Northeast 424 488 39,000  Level FlightAware ADS-B (EGPK / PIK)
Sat 08:27:55 PM 52.1591 1.2981 63° Northeast 424 488 39,000  Level FlightAware ADS-B
Sat 08:28:24 PM 52.1858 1.3810 62° Northeast 423 487 39,000  Level FlightAware ADS-B (EGLF / FAB)
Sat 08:28:25 PM 52.1868 1.3839 61° Northeast 423 487 39,000  Level FlightAware ADS-B
Sat 08:28:54 PM 52.2128 1.4652 62° Northeast 423 487 39,000  Level FlightAware ADS-B (EGLF / FAB)
Sat 08:28:55 PM 52.2143 1.4699 62° Northeast 423 487 39,000  Level FlightAware ADS-B
Sat 08:29:26 PM 52.2423 1.5571 62° Northeast 422 486 39,000  Level FlightAware ADS-B
Sat 08:29:46 PM 52.2382 1.5444 242° Southwest 423 487 39,000  Level FlightAware ADS-B (ZBAA / PEK)
Sat 08:29:58 PM 52.2703 1.6448 62° Northeast 424 488 39,000  Level FlightAware ADS-B
Sat 08:30:17 PM 52.2878 1.6998 62° Northeast 424 488 39,000  Level FlightAware ADS-B
Sat 08:30:28 PM 52.2977 1.7307 62° Northeast 424 488 39,000  Level FlightAware ADS-B
Sat 08:30:50 PM 52.3176 1.7937 63° Northeast 425 489 39,000  Level FlightAware ADS-B
Sat 08:30:58 PM 52.3250 1.8168 62° Northeast 425 489 39,000  Level FlightAware ADS-B
Sat 08:31:20 PM 52.3446 1.8788 63° Northeast 426 490 39,000  Level FlightAware ADS-B
Sat 08:31:28 PM 52.3521 1.9026 63° Northeast 427 491 39,000  Level FlightAware ADS-B
Sat 08:31:51 PM 52.3722 1.9667 63° Northeast 427 491 39,000  Level FlightAware ADS-B
Sat 08:31:59 PM 52.3796 1.9899 63° Northeast 427 491 39,000  Level FlightAware ADS-B
Sat 08:32:23 PM 52.4018 2.0608 63° Northeast 427 491 39,000  Level FlightAware ADS-B
Sat 08:32:29 PM 52.4062 2.0749 63° Northeast 427 491 39,000  Level FlightAware ADS-B
Sat 08:32:53 PM 52.4286 2.1466 63° Northeast 428 493 39,000  Level FlightAware ADS-B
Sat 08:32:59 PM 52.4333 2.1619 63° Northeast 428 493 39,000  Level FlightAware ADS-B
Sat 08:33:26 PM 52.4568 2.2373 63° Northeast 427 491 39,000  Level FlightAware ADS-B
Sat 08:33:29 PM 52.4604 2.2491 63° Northeast 428 493 39,000  Level FlightAware ADS-B
Sat 08:34:00 PM 52.4880 2.3381 63° Northeast 427 491 39,000  Level FlightAware ADS-B
Sat 08:34:03 PM 52.4909 2.3473 63° Northeast 427 491 39,000  Level FlightAware ADS-B
Sat 08:34:30 PM 52.5150 2.4253 63° Northeast 427 491 39,000  Level FlightAware ADS-B
Sat 08:34:33 PM 52.5146 2.4241 241° Southwest 427 491 39,000  Level FlightAware ADS-B
Sat 08:35:00 PM 52.5418 2.5126 63° Northeast 427 491 39,000  Level FlightAware ADS-B
Sat 08:35:11 PM 52.5509 2.5421 63° Northeast 425 489 39,000  Level FlightAware ADS-B
Sat 08:35:30 PM 52.5683 2.5990 63° Northeast 425 489 39,000  Level FlightAware ADS-B
Sat 08:35:48 PM 52.5842 2.6507 63° Northeast 425 489 39,000  Level FlightAware ADS-B
Sat 08:36:01 PM 52.5954 2.6875 63° Northeast 425 489 39,000  Level FlightAware ADS-B
Sat 08:36:21 PM 52.6121 2.7423 63° Northeast 426 490 39,000  Level FlightAware ADS-B
Sat 08:36:34 PM 52.6241 2.7818 63° Northeast 426 490 39,000  Level FlightAware ADS-B
Sat 08:36:51 PM 52.6369 2.8237 63° Northeast 427 491 39,000  Level FlightAware ADS-B
Sat 08:37:05 PM 52.6511 2.8708 64° Northeast 428 493 39,000  Level FlightAware ADS-B
Sat 08:37:30 PM 52.6738 2.9458 63° Northeast 425 489 39,000  Level FlightAware ADS-B
Sat 08:37:42 PM 52.6841 2.9800 64° Northeast 428 493 39,000  Level FlightAware ADS-B
Sat 08:38:04 PM 52.7031 3.0433 64° Northeast 425 489 39,000  Level FlightAware ADS-B
Sat 08:38:35 PM 52.7249 3.1156 64° Northeast 428 493 39,000  Level FlightAware ADS-B
Sat 08:39:20 PM 52.7697 3.2657 64° Northeast 424 488 39,000  Level FlightAware ADS-B
Sat 08:39:41 PM 52.7869 3.3236 64° Northeast 427 491 39,000  Level FlightAware ADS-B
Sat 08:39:50 PM 52.7958 3.3534 64° Northeast 423 487 39,000  Level FlightAware ADS-B
Sat 08:40:00 PM 52.8045 3.3828 64° Northeast 424 488 39,000  Level FlightAware ADS-B
Sat 08:40:36 PM 52.8357 3.4882 64° Northeast 424 488 39,000  Level FlightAware ADS-B
Sat 08:41:06 PM 52.8611 3.5745 64° Northeast 425 489 39,000  Level FlightAware ADS-B
Sat 08:41:42 PM 52.8923 3.6807 64° Northeast 426 490 39,000  Level FlightAware ADS-B
Sat 08:41:43 PM 52.8934 3.6840 64° Northeast 458 527 39,000  Level FlightAware UK
Sat 08:42:12 PM 52.9181 3.7690 64° Northeast 427 491 39,000  Level FlightAware ADS-B
Sat 08:42:43 PM 52.9451 3.8625 64° Northeast 460 529 39,000  Level FlightAware UK
Sat 08:43:04 PM 52.9630 3.9238 64° Northeast 430 495 39,000  Level FlightAware ADS-B
Sat 08:43:34 PM 52.9892 4.0144 64° Northeast 432 497 39,000  Level FlightAware ADS-B
Sat 08:43:45 PM 52.9990 4.0485 64° Northeast 436 502 39,000  Level FlightAware ADS-B
Sat 08:44:16 PM 53.0256 4.1409 64° Northeast 435 501 39,000  Level FlightAware ADS-B
Sat 08:44:27 PM 53.0326 4.1652 65° Northeast 436 502 39,000  Level FlightAware ADS-B
Sat 08:45:06 PM 53.0692 4.2933 65° Northeast 433 498 39,000  Level FlightAware ADS-B
Sat 08:45:40 PM 53.0980 4.3946 65° Northeast 432 497 39,000  Level FlightAware ADS-B
Sat 08:46:10 PM 53.1240 4.4862 65° Northeast 433 498 39,000  Level FlightAware ADS-B
Sat 08:46:51 PM 53.1590 4.6103 65° Northeast 433 498 39,000  Level FlightAware ADS-B
Sat 08:47:21 PM 53.1843 4.7005 65° Northeast 435 501 39,000  Level FlightAware ADS-B
Sat 08:48:01 PM 53.2193 4.8237 65° Northeast 460 529 39,000  Level FlightAware UK
Sat 08:48:02 PM 53.2195 4.8264 65° Northeast 437 503 39,000  Level FlightAware ADS-B
Sat 08:48:33 PM 53.2464 4.9230 65° Northeast 439 505 39,000  Level FlightAware ADS-B
Sat 08:49:28 PM 53.2932 5.0922 65° Northeast 442 509 39,000  Level FlightAware ADS-B
Sat 08:50:07 PM 53.3259 5.2134 65° Northeast 464 534 39,000  Level FlightAware UK
Sat 08:50:09 PM 53.3281 5.2195 65° Northeast 443 510 39,000  Level FlightAware ADS-B
Sat 08:51:13 PM 53.3832 5.4227 65° Northeast 462 532 39,000  Level FlightAware UK
Sat 08:51:49 PM 53.4132 5.5339 66° East 462 532 39,000  Level FlightAware UK
Sat 08:52:25 PM 53.4436 5.6474 66° East 462 532 39,000  Level FlightAware UK
Sat 08:52:37 PM 53.4540 5.6836 66° East 449 517 39,000  Level FlightAware ADS-B
Sat 08:53:17 PM 53.4883 5.8121 66° East 449 517 39,000  Level FlightAware ADS-B
Sat 08:53:56 PM 53.5203 5.9351 66° East 462 532 39,000  Level FlightAware UK
Sat 08:53:57 PM 53.5226 5.9408 66° East 450 518 39,000  Level FlightAware ADS-B
Sat 08:54:45 PM 53.5630 6.0936 66° East 450 518 39,000  Level FlightAware ADS-B
Sat 08:55:27 PM 53.5973 6.2242 66° East 449 517 39,000  Level FlightAware ADS-B
Sat 08:56:07 PM 53.6307 6.3520 66° East 449 517 39,000  Level FlightAware ADS-B
Sat 08:56:37 PM 53.6561 6.4493 66° East 449 517 39,000  Level FlightAware ADS-B
Sat 08:57:13 PM 53.6864 6.5658 66° East 462 532 39,000  Level FlightAware UK
Sat 08:57:17 PM 53.6893 6.5775 66° East 449 517 39,000  Level FlightAware ADS-B
Sat 08:57:49 PM 53.7159 6.6803 66° East 460 529 39,000  Level FlightAware UK
Sat 08:57:57 PM 53.7220 6.7044 66° East 449 517 39,000  Level FlightAware ADS-B
Sat 08:58:27 PM 53.7457 6.7968 67° East 448 516 39,000  Level FlightAware ADS-B
Sat 08:58:57 PM 53.7700 6.8924 67° East 448 516 39,000  Level FlightAware ADS-B
Sat 08:59:27 PM 53.7957 6.9937 67° East 449 517 39,000  Level FlightAware ADS-B
Sat 08:59:57 PM 53.8199 7.0897 67° East 448 516 39,000  Level FlightAware ADS-B
Sat 09:00:27 PM 53.8439 7.1850 67° East 448 516 39,000  Level FlightAware ADS-B
Sat 09:00:57 PM 53.8681 7.2817 67° East 448 516 39,000  Level FlightAware ADS-B
Sat 09:01:27 PM 53.8922 7.3779 67° East 449 517 39,000  Level FlightAware ADS-B
Sat 09:01:57 PM 53.9168 7.4772 67° East 450 518 39,000  Level FlightAware ADS-B
Sat 09:02:27 PM 53.9408 7.5743 67° East 451 519 39,000  Level FlightAware ADS-B
Sat 09:02:57 PM 53.9646 7.6710 67° East 452 520 39,000  Level FlightAware ADS-B
Sat 09:03:27 PM 53.9885 7.7686 67° East 453 521 39,000  Level FlightAware ADS-B
Sat 09:03:57 PM 54.0127 7.8677 67° East 452 520 39,000  Level FlightAware ADS-B
Sat 09:04:27 PM 54.0361 7.9636 67° East 452 520 39,000  Level FlightAware ADS-B
Sat 09:04:57 PM 54.0605 8.0645 68° East 451 519 39,000  Level FlightAware ADS-B
Sat 09:05:27 PM 54.0838 8.1617 68° East 452 520 39,000  Level FlightAware ADS-B
Sat 09:06:05 PM 54.1131 8.2834 68° East 451 519 39,000  Level FlightAware ADS-B
Sat 09:06:44 PM 54.1438 8.4124 68° East 452 520 39,000  Level FlightAware ADS-B
Sat 09:07:15 PM 54.1679 8.5145 68° East 453 521 39,000  Level FlightAware ADS-B
Sat 09:07:54 PM 54.1973 8.6394 68° East 455 524 39,000  Level FlightAware ADS-B
Sat 09:08:25 PM 54.2218 8.7437 68° East 456 525 39,000  Level FlightAware ADS-B
Sat 09:09:05 PM 54.2529 8.8770 68° East 457 526 39,000  Level FlightAware ADS-B
Sat 09:09:35 PM 54.2753 8.9741 68° East 457 526 39,000  Level FlightAware ADS-B
Sat 09:10:15 PM 54.3076 9.1143 68° East 458 527 39,000  Level FlightAware ADS-B
Sat 09:10:45 PM 54.3308 9.2154 68° East 457 526 39,000  Level FlightAware ADS-B
Sat 09:11:15 PM 54.3540 9.3172 69° East 457 526 39,000  Level FlightAware ADS-B
Sat 09:11:46 PM 54.3775 9.4206 69° East 456 525 39,000  Level FlightAware ADS-B
Sat 09:12:16 PM 54.4000 9.5197 69° East 457 526 39,000  Level FlightAware ADS-B
Sat 09:12:46 PM 54.4229 9.6217 69° East 457 526 39,000  Level FlightAware ADS-B
Sat 09:13:16 PM 54.4454 9.7223 69° East 455 524 39,000  Level FlightAware ADS-B
Sat 09:13:56 PM 54.4751 9.8558 69° East 456 525 39,000  Level FlightAware ADS-B
Sat 09:14:26 PM 54.4982 9.9602 69° East 456 525 39,000  Level FlightAware ADS-B
Sat 09:15:06 PM 54.5277 10.0945 69° East 457 526 39,000  Level FlightAware ADS-B
Sat 09:15:36 PM 54.5497 10.1952 69° East 457 526 39,000  Level FlightAware ADS-B
Sat 09:16:16 PM 54.5797 10.3333 69° East 460 529 39,000  Level FlightAware ADS-B
Sat 09:16:56 PM 54.6088 10.4679 69° East 461 531 39,000  Level FlightAware ADS-B
Sat 09:17:26 PM 54.6310 10.5711 70° East 460 529 39,000  Level FlightAware ADS-B
Sat 09:18:06 PM 54.6600 10.7072 70° East 459 528 39,000  Level FlightAware ADS-B
Sat 09:18:36 PM 54.6824 10.8125 70° East 459 528 39,000  Level FlightAware ADS-B
Sat 09:19:16 PM 54.7118 10.9519 70° East 460 529 39,000  Level FlightAware ADS-B
Sat 09:19:55 PM 54.7401 11.0866 70° East 462 532 39,000  Level FlightAware ADS-B
Sat 09:20:26 PM 54.7626 11.1946 70° East 462 532 39,000  Level FlightAware ADS-B
Sat 09:20:56 PM 54.7837 11.2969 70° East 463 533 39,000  Level FlightAware ADS-B
Sat 09:21:26 PM 54.8044 11.3971 70° East 463 533 39,000  Level FlightAware ADS-B
Sat 09:21:56 PM 54.8270 11.5070 70° East 463 533 39,000  Level FlightAware ADS-B
Sat 09:22:36 PM 54.8547 11.6433 70° East 463 533 39,000  Level FlightAware ADS-B
Sat 09:23:06 PM 54.8764 11.7507 71° East 464 534 39,000  Level FlightAware ADS-B
Sat 09:23:46 PM 54.9038 11.8870 71° East 465 535 39,000  Level FlightAware ADS-B
Sat 09:24:16 PM 54.9258 11.9967 71° East 466 536 39,000  Level FlightAware ADS-B
Sat 09:24:46 PM 54.9469 12.1028 71° East 467 537 39,000  Level FlightAware ADS-B
Sat 09:25:26 PM 54.9694 12.2486 75° East 472 543 39,000  Level FlightAware ADS-B
Sat 09:25:56 PM 54.9727 12.3604 87° East 475 547 39,000  Level FlightAware ADS-B
Sat 09:26:26 PM 54.9766 12.4772 87° East 475 547 39,000  Level FlightAware ADS-B
Sat 09:26:56 PM 54.9828 12.5886 84° East 474 545 39,000  Level FlightAware ADS-B
Sat 09:27:27 PM 54.9888 12.7074 85° East 474 545 39,000  Level FlightAware ADS-B
Sat 09:27:57 PM 54.9939 12.8197 85° East 473 544 39,000  Level FlightAware ADS-B
Sat 09:28:37 PM 55.0005 12.9682 86° East 473 544 39,000  Level FlightAware ADS-B
Sat 09:29:07 PM 55.0056 13.0855 86° East 473 544 39,000  Level FlightAware ADS-B
Sat 09:29:47 PM 55.0120 13.2375 86° East 473 544 39,000  Level FlightAware ADS-B
Sat 09:30:17 PM 55.0140 13.3494 88° East 474 545 39,000  Level FlightAware ADS-B
Sat 09:30:57 PM 55.0133 13.4997 90° East 474 545 39,000  Level FlightAware ADS-B
Sat 09:31:27 PM 55.0134 13.6191 90° East 475 547 39,000  Level FlightAware ADS-B
Sat 09:31:57 PM 55.0136 13.7282 90° East 476 548 39,000  Level FlightAware ADS-B
Sat 09:32:27 PM 55.0139 13.8454 90° East 476 548 39,000  Level FlightAware ADS-B
Sat 09:33:06 PM 55.0139 13.9976 90° East 475 547 39,000  Level FlightAware ADS-B
Sat 09:33:37 PM 55.0139 14.1142 90° East 476 548 39,000  Level FlightAware ADS-B
Sat 09:34:16 PM 55.0136 14.2651 90° East 477 549 39,000  Level FlightAware ADS-B
Sat 09:34:47 PM 55.0134 14.3809 90° East 474 545 39,000  Level FlightAware ADS-B
Sat 09:35:27 PM 55.0128 14.5322 90° East 473 544 39,000  Level FlightAware ADS-B
Sat 09:35:57 PM 55.0123 14.6472 90° East 474 545 39,000  Level FlightAware ADS-B
Sat 09:36:36 PM 55.0114 14.7934 91° East 475 547 39,000  Level FlightAware ADS-B
Sat 09:37:07 PM 55.0106 14.9129 91° East 474 545 39,000  Level FlightAware ADS-B
Sat 09:37:37 PM 55.0096 15.0274 91° East 475 547 39,000  Level FlightAware ADS-B
Sat 09:38:07 PM 55.0086 15.1422 91° East 476 548 39,000  Level FlightAware ADS-B
Sat 09:38:37 PM 55.0075 15.2556 91° East 477 549 39,000  Level FlightAware ADS-B
Sat 09:39:16 PM 55.0059 15.4062 91° East 478 550 39,000  Level FlightAware ADS-B
Sat 09:39:47 PM 55.0044 15.5233 91° East 479 551 39,000  Level FlightAware ADS-B
Sat 09:40:17 PM 55.0029 15.6390 91° East 479 551 39,000  Level FlightAware ADS-B
Sat 09:40:47 PM 55.0014 15.7497 91° East 478 550 39,000  Level FlightAware ADS-B
Sat 09:41:26 PM 54.9991 15.9051 91° East 478 550 39,000  Level FlightAware ADS-B
Sat 09:41:56 PM 54.9971 16.0223 92° East 480 552 39,000  Level FlightAware ADS-B
Sat 09:42:27 PM 54.9951 16.1397 92° East 481 554 39,000  Level FlightAware ADS-B
Sat 09:42:57 PM 54.9931 16.2544 92° East 482 555 39,000  Level FlightAware ADS-B
Sat 09:43:27 PM 54.9908 16.3741 92° East 483 556 39,000  Level FlightAware ADS-B
Sat 09:44:07 PM 54.9881 16.5136 92° East 483 556 39,000  Level FlightAware ADS-B
Sat 09:44:37 PM 54.9854 16.6394 92° East 482 555 39,000  Level FlightAware ADS-B
Sat 09:45:07 PM 54.9828 16.7555 92° East 482 555 39,000  Level FlightAware ADS-B
Sat 09:45:37 PM 54.9801 16.8718 92° East 482 555 39,000  Level FlightAware ADS-B
Sat 09:46:16 PM 54.9765 17.0218 92° East 482 555 39,000  Level FlightAware ADS-B
Sat 09:46:47 PM 54.9734 17.1442 92° East 481 554 39,000  Level FlightAware ADS-B
Sat 09:47:17 PM 54.9702 17.2599 93° East 481 554 39,000  Level FlightAware ADS-B
Sat 09:47:48 PM 54.9670 17.3781 93° East 480 552 39,000  Level FlightAware ADS-B
Sat 09:48:28 PM 54.9629 17.5273 93° East 480 552 39,000  Level FlightAware ADS-B
Sat 09:48:58 PM 54.9593 17.6471 93° East 481 554 39,000  Level FlightAware ADS-B
Sat 09:49:28 PM 54.9558 17.7622 93° East 483 556 39,000  Level FlightAware ADS-B
Sat 09:49:58 PM 54.9521 17.8802 93° East 484 557 39,000  Level FlightAware ADS-B
Sat 09:50:28 PM 54.9484 17.9934 93° East 485 558 39,000  Level FlightAware ADS-B
Sat 09:51:07 PM 54.9430 18.1507 93° East 486 559 39,000  Level FlightAware ADS-B
Sat 09:51:38 PM 54.9391 18.2659 93° East 486 559 39,000  Level FlightAware ADS-B
Sat 09:51:46 PM 54.9378 18.3023 93° East 486 559 39,000  Level FlightAware ADS-B
Sat 09:52:17 PM 54.9335 18.4216 94° East 486 559 39,000  Level FlightAware ADS-B
Sat 09:52:48 PM 54.9292 18.5401 94° East 486 559 39,000  Level FlightAware ADS-B
Sat 09:53:27 PM 54.9236 18.6850 94° East 485 558 39,000  Level FlightAware ADS-B
Sat 09:53:58 PM 54.9231 18.6999 94° East 484 557 39,000  Level FlightAware ADS-B
Sat 09:54:38 PM 54.9126 18.9641 94° East 483 556 39,000  Level FlightAware ADS-B (EPSY / SZY)
Sat 09:55:08 PM 54.9094 19.0832 93° East 483 556 39,000  Level FlightAware ADS-B (EPSY / SZY)
Sat 09:55:47 PM 54.9074 19.2371 91° East 482 555 39,000  Level FlightAware ADS-B (EPSY / SZY)
Sat 09:56:17 PM 54.9055 19.3409 92° East 482 555 39,000  Level FlightAware ADS-B (EPSY / SZY)
Sat 09:56:48 PM 54.9029 19.4694 92° East 482 555 39,000  Level FlightAware ADS-B (EPSY / SZY)
Sat 09:57:18 PM 54.9007 19.5692 92° East 483 556 39,000  Level FlightAware ADS-B (EPSY / SZY)
Sat 09:57:48 PM 54.8985 19.6978 92° East 483 556 39,000  Level FlightAware ADS-B (EPSY / SZY)
Sat 09:58:18 PM 54.8986 19.8175 90° East 484 557 39,000  Level FlightAware ADS-B (EPSY / SZY)
Sat 09:58:48 PM 54.8985 19.9359 90° East 484 557 39,000  Level FlightAware ADS-B (EPSY / SZY)
Sat 09:59:18 PM 54.8979 20.0498 90° East 485 558 39,000  Level FlightAware ADS-B (EPSY / SZY)
Sat 09:59:48 PM 54.8972 20.1658 91° East 485 558 39,000  Level FlightAware ADS-B (EPSY / SZY)
Sat 10:00:18 PM 54.8963 20.2795 91° East 486 559 39,000  Level FlightAware ADS-B (EPSY / SZY)
Sat 10:00:48 PM 54.8952 20.4024 91° East 488 562 39,000  Level FlightAware ADS-B (EPSY / SZY)
Sat 10:01:27 PM 54.8938 20.5550 91° East 489 563 39,000  Level FlightAware ADS-B (EPSY / SZY)
Sat 10:01:57 PM 54.8946 20.6712 89° East 490 564 39,000  Level FlightAware ADS-B (EPSY / SZY)
Sat 10:02:28 PM 54.8969 20.7856 88° East 490 564 39,000  Level FlightAware ADS-B (EPSY / SZY)
Sat 10:03:07 PM 54.8997 20.9477 88° East 492 566 39,000  Level FlightAware ADS-B (EPSY / SZY)
Sat 10:03:15 PM 54.9002 20.9779 88° East 492 566 39,000  Level FlightAware ADS-B
Sat 10:03:48 PM 54.9023 21.1057 88° East 493 567 39,000  Level FlightAware ADS-B (EPSY / SZY)
Sat 10:04:18 PM 54.9043 21.2257 88° East 495 570 39,000  Level FlightAware ADS-B (EPSY / SZY)
Sat 10:04:48 PM 54.9065 21.3430 88° East 495 570 39,000  Level FlightAware ADS-B (EPSY / SZY)
Sat 10:05:27 PM 54.9117 21.5005 87° East 494 568 39,000  Level FlightAware ADS-B (EPSY / SZY)
Sat 10:05:57 PM 54.9152 21.6177 87° East 494 568 39,000  Level FlightAware ADS-B (EPSY / SZY)
Sat 10:06:28 PM 54.9185 21.7362 87° East 493 567 39,000  Level FlightAware ADS-B (EPSY / SZY)
Sat 10:06:58 PM 54.9215 21.8546 87° East 492 566 39,000  Level FlightAware ADS-B (EPSY / SZY)
Sat 10:07:28 PM 54.9246 21.9728 87° East 492 566 39,000  Level FlightAware ADS-B (EPSY / SZY)
Sat 10:07:58 PM 54.9276 22.0928 87° East 493 567 39,000  Level FlightAware ADS-B (EPSY / SZY)
Sat 10:08:28 PM 54.9304 22.2087 88° East 492 566 39,000  Level FlightAware ADS-B (EPSY / SZY)
Sat 10:08:58 PM 54.9330 22.3271 88° East 491 565 39,000  Level FlightAware ADS-B (EPSY / SZY)
Sat 10:09:28 PM 54.9355 22.4454 88° East 490 564 39,000  Level FlightAware ADS-B (EPSY / SZY)
Sat 10:09:58 PM 54.9380 22.5651 88° East 489 563 39,000  Level FlightAware ADS-B (EPSY / SZY)
Sat 10:10:28 PM 54.9403 22.6848 88° East 490 564 39,000  Level FlightAware ADS-B (EPSY / SZY)
Sat 10:10:58 PM 54.9455 22.8001 86° East 491 565 39,000  Level FlightAware ADS-B (EPSY / SZY)
Sat 10:11:28 PM 54.9537 22.9185 83° East 491 565 39,000  Level FlightAware ADS-B (EPSY / SZY)
Sat 10:11:58 PM 54.9614 23.0370 83° East 492 566 39,000  Level FlightAware ADS-B (EPSY / SZY)
Sat 10:12:28 PM 54.9687 23.1490 84° East 492 566 39,000  Level FlightAware ADS-B (EPSY / SZY)
Sat 10:13:03 PM 54.9775 23.2874 84° East 493 567 39,000  Level FlightAware ADS-B
Sat 10:13:33 PM 54.9847 23.4020 84° East 493 567 39,000  Level FlightAware ADS-B
Sat 10:14:03 PM 54.9918 23.5177 84° East 494 568 39,000  Level FlightAware ADS-B
Sat 10:14:38 PM 55.0004 23.6591 84° East 495 570 39,000  Level FlightAware ADS-B (EPSY / SZY)
Sat 10:15:17 PM 55.0099 23.8199 84° East 495 570 39,000  Level FlightAware ADS-B (EPSY / SZY)
Sat 10:15:47 PM 55.0164 23.9295 84° East 495 570 39,000  Level FlightAware ADS-B
Sat 10:16:18 PM 55.0234 24.0525 84° East 494 568 39,000  Level FlightAware ADS-B (EPSY / SZY)
Sat 10:16:49 PM 55.0296 24.1629 84° East 494 568 39,000  Level FlightAware ADS-B
Sat 10:17:20 PM 55.0371 24.2979 84° East 493 567 39,000  Level FlightAware ADS-B
Sat 10:17:50 PM 55.0437 24.4213 85° East 493 567 39,000  Level FlightAware ADS-B
Sat 10:18:24 PM 55.0506 24.5509 85° East 492 566 39,000  Level FlightAware ADS-B
Sat 10:18:58 PM 55.0578 24.6896 85° East 493 567 39,000  Level FlightAware ADS-B (EPSY / SZY)
Sat 10:19:28 PM 55.0637 24.8057 85° East 494 568 39,000  Level FlightAware ADS-B (EPSY / SZY)
Sat 10:19:58 PM 55.0699 24.9281 85° East 494 568 39,000  Level FlightAware ADS-B (EPSY / SZY)
Sat 10:20:28 PM 55.0753 25.0379 85° East 495 570 39,000  Level FlightAware ADS-B (EPSY / SZY)
Sat 10:20:58 PM 55.0814 25.1639 85° East 496 571 39,000  Level FlightAware ADS-B (EPSY / SZY)
Sat 10:21:28 PM 55.0871 25.2850 85° East 495 570 39,000  Level FlightAware ADS-B (EPSY / SZY)
Sat 10:22:07 PM 55.0941 25.4379 85° East 494 568 39,000  Level FlightAware ADS-B
Sat 10:22:47 PM 55.1007 25.5881 85° East 495 570 39,000  Level FlightAware ADS-B
Sat 10:23:22 PM 55.1072 25.7370 86° East 494 568 39,000  Level FlightAware ADS-B
Sat 10:23:55 PM 55.1124 25.8598 86° East 495 570 39,000  Level FlightAware ADS-B
Sat 10:24:28 PM 55.1180 25.9966 86° East 496 571 39,000  Level FlightAware ADS-B (EPSY / SZY)
Sat 10:25:07 PM 55.1243 26.1555 86° East 497 572 39,000  Level FlightAware ADS-B (EPSY / SZY)
Sat 10:25:37 PM 55.1288 26.2724 86° East 498 573 39,000  Level FlightAware ADS-B (EPSY / SZY)
Sat 10:26:23 PM 55.1274 26.2341 266° West 497 572 39,000  Level FlightAware ADS-B
Sat 10:27:22 PM 55.1390 26.5723 86° East 496 571 39,000  Level FlightAware ADS-B (EPSY / SZY)
Sat 10:29:00 PM 55.1805 26.9126 78° East  Level Estimated
Sat 10:29:22 PM 55.1367 26.4821 78° East 497 572 39,000  Level FlightAware ADS-B
Sat 10:30:11 PM 55.1444 27.3374 78° East 499 574 39,000  Level FlightAware ADS-B (EPSY / SZY)
Sat 10:31:00 PM 55.1782 26.8224 78° East  Level Estimated
Sat 10:32:00 PM 55.2031 27.0311 78° East  Level Estimated
Sat 10:33:00 PM 55.2166 27.9244 78° East  Level Estimated
Sat 10:34:00 PM 55.2416 28.1333 78° East  Level Estimated
Sat 10:35:00 PM 55.2662 28.3425 78° East  Level Estimated
Sat 10:36:00 PM 55.2905 28.5519 78° East  Level Estimated
Sat 10:37:00 PM 55.3144 28.7616 79° East  Level Estimated
Sat 10:38:00 PM 55.3379 28.9715 79° East  Level Estimated
Sat 10:39:00 PM 55.3611 29.1817 79° East  Level Estimated
Sat 10:40:00 PM 55.3839 29.3922 79° East  Level Estimated
Sat 10:41:00 PM 55.4064 29.6028 79° East  Level Estimated
Sat 10:42:00 PM 55.4285 29.8137 79° East  Level Estimated
Sat 10:43:00 PM 55.4502 30.0249 80° East  Level Estimated
Sat 10:44:00 PM 55.4716 30.2362 80° East  Level Estimated
Sat 10:45:00 PM 55.4926 30.4478 80° East  Level Estimated
Sat 10:46:00 PM 55.5132 30.6597 80° East  Level Estimated
Sat 10:47:00 PM 55.5335 30.8717 80° East  Level Estimated
Sat 10:48:00 PM 55.5534 31.0840 81° East  Level Estimated
Sat 10:49:00 PM 55.5729 31.2964 81° East  Level Estimated
Sat 10:50:00 PM 55.5921 31.5091 81° East  Level Estimated
Sat 10:51:00 PM 55.6109 31.7220 81° East  Level Estimated
Sat 10:52:00 PM 55.6293 31.9351 81° East  Level Estimated
Sat 10:53:00 PM 55.6474 32.1484 81° East  Level Estimated
Sat 10:54:00 PM 55.6651 32.3619 82° East  Level Estimated
Sat 10:55:00 PM 55.6824 32.5756 82° East  Level Estimated
Sat 10:56:00 PM 55.6994 32.7894 82° East  Level Estimated
Sat 10:57:00 PM 55.7160 33.0035 82° East  Level Estimated
Sat 10:58:00 PM 55.7322 33.2177 82° East  Level Estimated
Sat 10:59:00 PM 55.7480 33.4321 82° East  Level Estimated
Sat 11:00:00 PM 55.7635 33.6467 83° East  Level Estimated
Sat 11:01:00 PM 55.7785 33.8614 83° East  Level Estimated
Sat 11:02:00 PM 55.7933 34.0763 83° East  Level Estimated
Sat 11:03:00 PM 55.8076 34.2914 83° East  Level Estimated
Sat 11:04:00 PM 55.8215 34.5066 83° East  Level Estimated
Sat 11:05:00 PM 55.8351 34.7220 84° East  Level Estimated
Sat 11:06:00 PM 55.8484 34.9375 84° East  Level Estimated
Sat 11:07:00 PM 55.8612 35.1532 84° East  Level Estimated
Sat 11:08:00 PM 55.8736 35.3690 84° East  Level Estimated
Sat 11:09:00 PM 55.8857 35.5849 84° East  Level Estimated
Sat 11:10:00 PM 55.8974 35.8010 84° East  Level Estimated
Sat 11:11:00 PM 55.9087 36.0172 85° East  Level Estimated
Sat 11:12:00 PM 55.9197 36.2336 85° East  Level Estimated
Sat 11:13:00 PM 55.9302 36.4500 85° East  Level Estimated
Sat 11:14:00 PM 55.9404 36.6666 85° East  Level Estimated
Sat 11:15:00 PM 55.9502 36.8833 85° East  Level Estimated
Sat 11:16:00 PM 55.9596 37.1000 85° East  Level Estimated
Sat 11:17:00 PM 55.9687 37.3169 86° East  Level Estimated
Sat 11:18:00 PM 55.9726 37.4146 86° East  Level Estimated
Sat 11:19:00 PM 55.9726 37.4146 344° North  Level Estimated
Sat 11:20:00 PM 55.9726 37.4146 344° North  Level Estimated
Sat 11:21:00 PM 55.9726 37.4146 344° North  Level Estimated
Sat 11:22:00 PM 55.9726 37.4146 344° North  Level Estimated
Sat 11:23:00 PM 55.9726 37.4146 344° North  Level Estimated
Sat 11:24:00 PM 55.9726 37.4146 344° North  Level Estimated
Sat 11:25:00 PM 55.9726 37.4146 344° North  Level Estimated
Sat 11:26:00 PM 55.9726 37.4146 344° North  Level Estimated
Sat 11:27:00 PM 55.9726 37.4146 344° North  Level Estimated

Login

Don't have an account? Register now (free) for customized features, flight alerts, and more!